Wetterdaten: Donnerstag, 08.11.2018
Datum Zeit Temp. Aussen Temp. o. S. +5cm Feuchte Auss Luftdruck Regen Sonnenschein Regendauer Solar Windben Empfang
08.11.2018 00:00 11,3 C 10,0 C 9,4 C 87 % 1011,2 hPa 0,0 l/m 0 min 0 min 0 W/m 3,2 km/h (1 Bft) 95,74 %
08.11.2018 00:02 11,2 C 10,0 C 9,4 C 87 % 1011,3 hPa 0,0 l/m 0 min 0 min 0 W/m 3,2 km/h (1 Bft) 95,00 %
08.11.2018 00:04 11,2 C 10,0 C 9,4 C 87 % 1011,2 hPa 0,0 l/m 0 min 0 min 0 W/m 0,0 km/h (0 Bft) 97,87 %
08.11.2018 00:07 11,2 C 10,0 C 9,4 C 87 % 1011,2 hPa 0,0 l/m 0 min 0 min 0 W/m 0,0 km/h (0 Bft) 97,87 %
08.11.2018 00:08 11,2 C 10,0 C 9,4 C 87 % 1011,2 hPa 0,0 l/m 0 min 0 min 0 W/m 0,0 km/h (0 Bft) 97,87 %
08.11.2018 00:10 11,1 C 10,0 C 9,4 C 88 % 1011,2 hPa 0,0 l/m 0 min 0 min 0 W/m 9,7 km/h (2 Bft) 95,74 %
08.11.2018 00:12 11,1 C 10,0 C 9,4 C 88 % 1011,2 hPa 0,0 l/m 0 min 0 min 0 W/m 6,4 km/h (2 Bft) 95,74 %
08.11.2018 00:14 11,1 C 10,0 C 9,4 C 88 % 1011,2 hPa 0,0 l/m 0 min 0 min 0 W/m 6,4 km/h (2 Bft) 95,65 %
08.11.2018 00:16 11,0 C 10,0 C 9,4 C 88 % 1011,2 hPa 0,0 l/m 0 min 0 min 0 W/m 6,4 km/h (2 Bft) 95,74 %
08.11.2018 00:18 11,0 C 10,0 C 9,4 C 88 % 1011,2 hPa 0,0 l/m 0 min 0 min 0 W/m 9,7 km/h (2 Bft) 97,87 %
08.11.2018 00:20 10,9 C 10,0 C 9,4 C 88 % 1011,3 hPa 0,0 l/m 0 min 0 min 0 W/m 6,4 km/h (2 Bft) 95,74 %
08.11.2018 00:22 10,9 C 10,0 C 9,4 C 88 % 1011,5 hPa 0,0 l/m 0 min 0 min 0 W/m 9,7 km/h (2 Bft) 93,62 %
08.11.2018 00:24 10,9 C 10,0 C 9,4 C 88 % 1011,5 hPa 0,0 l/m 0 min 0 min 0 W/m 6,4 km/h (2 Bft) 93,62 %
08.11.2018 00:26 10,9 C 10,0 C 9,4 C 88 % 1011,5 hPa 0,0 l/m 0 min 0 min 0 W/m 9,7 km/h (2 Bft) 95,65 %
08.11.2018 00:28 10,9 C 10,0 C 9,4 C 89 % 1011,5 hPa 0,0 l/m 0 min 0 min 0 W/m 9,7 km/h (2 Bft) 95,74 %
08.11.2018 00:30 10,9 C 10,0 C 9,4 C 89 % 1011,6 hPa 0,0 l/m 0 min 0 min 0 W/m 3,2 km/h (1 Bft) 93,62 %
08.11.2018 00:32 10,8 C 10,0 C 9,4 C 89 % 1011,6 hPa 0,0 l/m 0 min 0 min 0 W/m 6,4 km/h (2 Bft) 95,74 %
08.11.2018 00:34 10,8 C 10,0 C 9,4 C 89 % 1011,7 hPa 0,0 l/m 0 min 0 min 0 W/m 9,7 km/h (2 Bft) 97,87 %
08.11.2018 00:38 10,8 C 10,0 C 9,4 C 89 % 1011,8 hPa 0,0 l/m 0 min 0 min 0 W/m 9,7 km/h (2 Bft) 96,77 %
08.11.2018 00:40 10,8 C 10,0 C 9,4 C 89 % 1011,8 hPa 0,0 l/m 0 min 0 min 0 W/m 9,7 km/h (2 Bft) 95,74 %
08.11.2018 00:42 10,8 C 10,0 C 9,4 C 89 % 1011,8 hPa 0,0 l/m 0 min 0 min 0 W/m 9,7 km/h (2 Bft) 97,87 %
08.11.2018 00:44 10,8 C 10,6 C 9,4 C 89 % 1011,8 hPa 0,0 l/m 0 min 0 min 0 W/m 6,4 km/h (2 Bft) 97,87 %
08.11.2018 00:46 10,8 C 10,6 C 10,0 C 89 % 1011,8 hPa 0,0 l/m 0 min 0 min 0 W/m 6,4 km/h (2 Bft) 97,87 %
08.11.2018 00:48 10,8 C 10,6 C 10,0 C 89 % 1011,8 hPa 0,0 l/m 0 min 0 min 0 W/m 9,7 km/h (2 Bft) 93,62 %
08.11.2018 00:50 10,8 C 10,6 C 10,0 C 89 % 1011,9 hPa 0,0 l/m 0 min 0 min 0 W/m 6,4 km/h (2 Bft) 97,83 %
08.11.2018 00:52 10,8 C 10,6 C 10,0 C 89 % 1012,0 hPa 0,0 l/m 0 min 0 min 0 W/m 6,4 km/h (2 Bft) 97,87 %
08.11.2018 00:54 10,8 C 10,6 C 10,0 C 90 % 1012,0 hPa 0,0 l/m 0 min 0 min 0 W/m 9,7 km/h (2 Bft) 97,87 %
08.11.2018 00:56 10,8 C 10,6 C 10,0 C 90 % 1012,1 hPa 0,0 l/m 0 min 0 min 0 W/m 6,4 km/h (2 Bft) 93,62 %
08.11.2018 00:58 10,8 C 10,6 C 10,0 C 90 % 1012,1 hPa 0,0 l/m 0 min 0 min 0 W/m 9,7 km/h (2 Bft) 100,00 %
08.11.2018 01:00 10,8 C 10,6 C 10,0 C 90 % 1012,1 hPa 0,0 l/m 0 min 0 min 0 W/m 6,4 km/h (2 Bft) 100,00 %
08.11.2018 01:02 10,8 C 10,6 C 10,0 C 90 % 1012,2 hPa 0,0 l/m 0 min 0 min 0 W/m 6,4 km/h (2 Bft) 97,87 %
08.11.2018 01:04 10,8 C 10,6 C 10,0 C 90 % 1012,2 hPa 0,0 l/m 0 min 0 min 0 W/m 9,7 km/h (2 Bft) 97,87 %
08.11.2018 01:08 10,9 C 10,6 C 10,0 C 90 % 1012,1 hPa 0,0 l/m 0 min 0 min 0 W/m 6,4 km/h (2 Bft) 100,00 %
08.11.2018 01:10 10,9 C 10,6 C 10,0 C 90 % 1012,1 hPa 0,0 l/m 0 min 0 min 0 W/m 9,7 km/h (2 Bft) 97,87 %
08.11.2018 01:12 10,9 C 10,6 C 10,0 C 90 % 1012,1 hPa 0,0 l/m 0 min 0 min 0 W/m 6,4 km/h (2 Bft) 95,65 %
08.11.2018 01:14 10,9 C 10,6 C 10,0 C 90 % 1012,2 hPa 0,0 l/m 0 min 0 min 0 W/m 6,4 km/h (2 Bft) 97,87 %
08.11.2018 01:16 10,9 C 10,6 C 10,0 C 90 % 1012,1 hPa 0,0 l/m 0 min 0 min 0 W/m 12,9 km/h (3 Bft) 100,00 %
08.11.2018 01:18 10,9 C 10,6 C 9,4 C 90 % 1012,1 hPa 0,0 l/m 0 min 0 min 0 W/m 6,4 km/h (2 Bft) 100,00 %
08.11.2018 01:20 10,9 C 10,6 C 10,0 C 90 % 1012,0 hPa 0,0 l/m 0 min 0 min 0 W/m 12,9 km/h (3 Bft) 100,00 %
08.11.2018 01:22 10,9 C 10,6 C 9,4 C 90 % 1012,1 hPa 0,0 l/m 0 min 0 min 0 W/m 9,7 km/h (2 Bft) 100,00 %
08.11.2018 01:24 10,9 C 10,6 C 10,0 C 90 % 1012,1 hPa 0,0 l/m 0 min 0 min 0 W/m 9,7 km/h (2 Bft) 97,83 %
08.11.2018 01:26 10,9 C 10,6 C 9,4 C 90 % 1012,2 hPa 0,0 l/m 0 min 0 min 0 W/m 9,7 km/h (2 Bft) 100,00 %
08.11.2018 01:28 10,9 C 10,6 C 10,0 C 89 % 1012,1 hPa 0,0 l/m 0 min 0 min 0 W/m 12,9 km/h (3 Bft) 100,00 %
08.11.2018 01:30 10,9 C 10,6 C 10,0 C 89 % 1012,2 hPa 0,0 l/m 0 min 0 min 0 W/m 9,7 km/h (2 Bft) 100,00 %
08.11.2018 01:32 10,9 C 10,6 C 10,0 C 89 % 1012,3 hPa 0,0 l/m 0 min 0 min 0 W/m 6,4 km/h (2 Bft) 100,00 %
08.11.2018 01:34 10,9 C 10,0 C 9,4 C 89 % 1012,4 hPa 0,0 l/m 0 min 0 min 0 W/m 6,4 km/h (2 Bft) 97,87 %
08.11.2018 01:38 10,9 C 10,0 C 9,4 C 89 % 1012,5 hPa 0,0 l/m 0 min 0 min 0 W/m 9,7 km/h (2 Bft) 98,92 %
08.11.2018 01:40 10,9 C 10,0 C 9,4 C 89 % 1012,6 hPa 0,0 l/m 0 min 0 min 0 W/m 6,4 km/h (2 Bft) 100,00 %
08.11.2018 01:42 10,9 C 10,0 C 9,4 C 89 % 1012,5 hPa 0,0 l/m 0 min 0 min 0 W/m 6,4 km/h (2 Bft) 95,74 %
08.11.2018 01:44 10,9 C 10,0 C 9,4 C 89 % 1012,5 hPa 0,0 l/m 0 min 0 min 0 W/m 6,4 km/h (2 Bft) 97,87 %
08.11.2018 01:46 10,9 C 10,0 C 9,4 C 89 % 1012,5 hPa 0,0 l/m 0 min 0 min 0 W/m 6,4 km/h (2 Bft) 100,00 %
08.11.2018 01:48 10,8 C 10,0 C 9,4 C 89 % 1012,5 hPa 0,0 l/m 0 min 0 min 0 W/m 9,7 km/h (2 Bft) 97,83 %
08.11.2018 01:50 10,8 C 10,0 C 9,4 C 89 % 1012,6 hPa 0,0 l/m 0 min 0 min 0 W/m 6,4 km/h (2 Bft) 97,87 %
08.11.2018 01:52 10,8 C 10,0 C 9,4 C 89 % 1012,6 hPa 0,0 l/m 0 min 0 min 0 W/m 9,7 km/h (2 Bft) 97,87 %
08.11.2018 01:54 10,8 C 10,0 C 9,4 C 89 % 1012,6 hPa 0,0 l/m 0 min 0 min 0 W/m 9,7 km/h (2 Bft) 97,87 %
08.11.2018 01:56 10,8 C 10,0 C 9,4 C 89 % 1012,6 hPa 0,0 l/m 0 min 0 min 0 W/m 9,7 km/h (2 Bft) 97,87 %
08.11.2018 01:58 10,8 C 10,0 C 9,4 C 89 % 1012,7 hPa 0,0 l/m 0 min 0 min 0 W/m 6,4 km/h (2 Bft) 96,08 %
08.11.2018 02:00 10,8 C 10,0 C 9,4 C 89 % 1012,6 hPa 0,0 l/m 0 min 0 min 0 W/m 6,4 km/h (2 Bft) 97,78 %
08.11.2018 02:02 10,8 C 10,0 C 9,4 C 89 % 1012,7 hPa 0,0 l/m 0 min 0 min 0 W/m 6,4 km/h (2 Bft) 95,74 %
08.11.2018 02:04 10,8 C 10,0 C 9,4 C 88 % 1012,7 hPa 0,0 l/m 0 min 0 min 0 W/m 6,4 km/h (2 Bft) 97,87 %
08.11.2018 02:08 10,7 C 10,0 C 8,9 C 88 % 1012,7 hPa 0,0 l/m 0 min 0 min 0 W/m 6,4 km/h (2 Bft) 96,81 %
08.11.2018 02:10 10,7 C 10,0 C 9,4 C 88 % 1012,7 hPa 0,0 l/m 0 min 0 min 0 W/m 6,4 km/h (2 Bft) 100,00 %
08.11.2018 02:12 10,7 C 9,4 C 8,9 C 88 % 1012,8 hPa 0,0 l/m 0 min 0 min 0 W/m 9,7 km/h (2 Bft) 96,55 %
08.11.2018 02:14 10,7 C 9,4 C 8,9 C 88 % 1012,8 hPa 0,0 l/m 0 min 0 min 0 W/m 6,4 km/h (2 Bft) 97,87 %
08.11.2018 02:16 10,6 C 9,4 C 8,9 C 88 % 1012,8 hPa 0,0 l/m 0 min 0 min 0 W/m 6,4 km/h (2 Bft) 95,74 %
08.11.2018 02:18 10,6 C 9,4 C 8,9 C 88 % 1012,8 hPa 0,0 l/m 0 min 0 min 0 W/m 6,4 km/h (2 Bft) 97,87 %
08.11.2018 02:20 10,6 C 9,4 C 8,9 C 88 % 1012,8 hPa 0,0 l/m 0 min 0 min 0 W/m 9,7 km/h (2 Bft) 97,87 %
08.11.2018 02:22 10,6 C 9,4 C 8,9 C 88 % 1012,8 hPa 0,0 l/m 0 min 0 min 0 W/m 6,4 km/h (2 Bft) 97,83 %
08.11.2018 02:24 10,5 C 9,4 C 8,9 C 88 % 1012,8 hPa 0,0 l/m 0 min 0 min 0 W/m 12,9 km/h (3 Bft) 97,87 %
08.11.2018 02:26 10,5 C 9,4 C 8,9 C 88 % 1012,9 hPa 0,0 l/m 0 min 0 min 0 W/m 6,4 km/h (2 Bft) 95,74 %
08.11.2018 02:28 10,5 C 9,4 C 8,9 C 88 % 1012,9 hPa 0,0 l/m 0 min 0 min 0 W/m 6,4 km/h (2 Bft) 97,87 %
08.11.2018 02:30 10,4 C 9,4 C 8,9 C 88 % 1013,0 hPa 0,0 l/m 0 min 0 min 0 W/m 6,4 km/h (2 Bft) 97,87 %
08.11.2018 02:32 10,4 C 9,4 C 8,9 C 88 % 1013,0 hPa 0,0 l/m 0 min 0 min 0 W/m 6,4 km/h (2 Bft) 97,83 %
08.11.2018 02:34 10,4 C 9,4 C 8,9 C 88 % 1013,0 hPa 0,0 l/m 0 min 0 min 0 W/m 9,7 km/h (2 Bft) 100,00 %
08.11.2018 02:38 10,4 C 9,4 C 8,9 C 88 % 1013,0 hPa 0,0 l/m 0 min 0 min 0 W/m 6,4 km/h (2 Bft) 98,78 %
08.11.2018 02:40 10,3 C 9,4 C 8,9 C 89 % 1013,1 hPa 0,0 l/m 0 min 0 min 0 W/m 9,7 km/h (2 Bft) 100,00 %
08.11.2018 02:42 10,3 C 9,4 C 8,9 C 88 % 1013,1 hPa 0,0 l/m 0 min 0 min 0 W/m 6,4 km/h (2 Bft) 97,87 %
08.11.2018 02:44 10,3 C 9,4 C 8,9 C 88 % 1013,1 hPa 0,0 l/m 0 min 0 min 0 W/m 9,7 km/h (2 Bft) 100,00 %
08.11.2018 02:46 10,3 C 9,4 C 8,9 C 88 % 1013,1 hPa 0,0 l/m 0 min 0 min 0 W/m 9,7 km/h (2 Bft) 100,00 %
08.11.2018 02:48 10,3 C 9,4 C 8,9 C 88 % 1013,1 hPa 0,0 l/m 0 min 0 min 0 W/m 9,7 km/h (2 Bft) 100,00 %
08.11.2018 02:50 10,2 C 9,4 C 8,9 C 89 % 1013,1 hPa 0,0 l/m 0 min 0 min 0 W/m 12,9 km/h (3 Bft) 100,00 %
08.11.2018 02:52 10,2 C 9,4 C 8,9 C 89 % 1013,2 hPa 0,0 l/m 0 min 0 min 0 W/m 9,7 km/h (2 Bft) 97,87 %
08.11.2018 02:54 10,2 C 9,4 C 8,9 C 89 % 1013,2 hPa 0,0 l/m 0 min 0 min 0 W/m 6,4 km/h (2 Bft) 100,00 %
08.11.2018 02:56 10,2 C 9,4 C 8,9 C 89 % 1013,2 hPa 0,0 l/m 0 min 0 min 0 W/m 6,4 km/h (2 Bft) 100,00 %
08.11.2018 02:58 10,2 C 9,4 C 8,9 C 89 % 1013,3 hPa 0,0 l/m 0 min 0 min 0 W/m 12,9 km/h (3 Bft) 96,55 %
08.11.2018 03:00 10,2 C 9,4 C 8,9 C 89 % 1013,3 hPa 0,0 l/m 0 min 0 min 0 W/m 6,4 km/h (2 Bft) 97,87 %
08.11.2018 03:02 10,2 C 9,4 C 8,9 C 89 % 1013,3 hPa 0,0 l/m 0 min 0 min 0 W/m 6,4 km/h (2 Bft) 100,00 %
08.11.2018 03:04 10,2 C 9,4 C 8,9 C 89 % 1013,3 hPa 0,0 l/m 0 min 0 min 0 W/m 6,4 km/h (2 Bft) 100,00 %
08.11.2018 03:08 10,2 C 10,0 C 8,9 C 89 % 1013,3 hPa 0,0 l/m 0 min 0 min 0 W/m 16,1 km/h (3 Bft) 97,56 %
08.11.2018 03:10 10,2 C 9,4 C 8,9 C 89 % 1013,4 hPa 0,0 l/m 0 min 0 min 0 W/m 9,7 km/h (2 Bft) 97,87 %
08.11.2018 03:12 10,1 C 9,4 C 8,9 C 89 % 1013,4 hPa 0,0 l/m 0 min 0 min 0 W/m 9,7 km/h (2 Bft) 98,28 %
08.11.2018 03:14 10,2 C 9,4 C 8,9 C 89 % 1013,4 hPa 0,0 l/m 0 min 0 min 0 W/m 9,7 km/h (2 Bft) 95,74 %
08.11.2018 03:16 10,2 C 9,4 C 8,9 C 89 % 1013,4 hPa 0,0 l/m 0 min 0 min 0 W/m 6,4 km/h (2 Bft) 95,74 %
08.11.2018 03:18 10,1 C 9,4 C 8,9 C 89 % 1013,4 hPa 0,0 l/m 0 min 0 min 0 W/m 6,4 km/h (2 Bft) 97,87 %
08.11.2018 03:20 10,1 C 9,4 C 8,9 C 89 % 1013,4 hPa 0,0 l/m 0 min 0 min 0 W/m 6,4 km/h (2 Bft) 97,83 %
08.11.2018 03:22 10,1 C 9,4 C 8,9 C 89 % 1013,3 hPa 0,0 l/m 0 min 0 min 0 W/m 3,2 km/h (1 Bft) 93,62 %
08.11.2018 03:24 10,1 C 9,4 C 8,3 C 89 % 1013,3 hPa 0,0 l/m 0 min 0 min 0 W/m 3,2 km/h (1 Bft) 95,74 %
08.11.2018 03:26 10,1 C 9,4 C 8,3 C 89 % 1013,4 hPa 0,0 l/m 0 min 0 min 0 W/m 6,4 km/h (2 Bft) 94,29 %
08.11.2018 03:28 10,1 C 9,4 C 8,3 C 89 % 1013,4 hPa 0,0 l/m 0 min 0 min 0 W/m 6,4 km/h (2 Bft) 94,92 %
08.11.2018 03:30 10,1 C 9,4 C 8,3 C 89 % 1013,5 hPa 0,0 l/m 0 min 0 min 0 W/m 6,4 km/h (2 Bft) 97,14 %
08.11.2018 03:32 10,1 C 9,4 C 8,3 C 89 % 1013,5 hPa 0,0 l/m 0 min 0 min 0 W/m 6,4 km/h (2 Bft) 95,74 %
08.11.2018 03:34 10,1 C 8,9 C 8,3 C 89 % 1013,6 hPa 0,0 l/m 0 min 0 min 0 W/m 6,4 km/h (2 Bft) 91,38 %
08.11.2018 03:38 10,0 C 8,9 C 8,3 C 89 % 1013,8 hPa 0,0 l/m 0 min 0 min 0 W/m 6,4 km/h (2 Bft) 94,68 %
08.11.2018 03:40 10,0 C 8,9 C 8,3 C 89 % 1013,8 hPa 0,0 l/m 0 min 0 min 0 W/m 6,4 km/h (2 Bft) 94,29 %
08.11.2018 03:42 10,0 C 8,9 C 8,3 C 89 % 1013,8 hPa 0,0 l/m 0 min 0 min 0 W/m 9,7 km/h (2 Bft) 95,74 %
08.11.2018 03:44 9,9 C 8,9 C 8,3 C 89 % 1013,9 hPa 0,0 l/m 0 min 0 min 0 W/m 9,7 km/h (2 Bft) 96,55 %
08.11.2018 03:46 9,9 C 8,9 C 8,3 C 89 % 1013,9 hPa 0,0 l/m 0 min 0 min 0 W/m 9,7 km/h (2 Bft) 94,44 %
08.11.2018 03:48 9,9 C 8,9 C 8,3 C 89 % 1013,8 hPa 0,0 l/m 0 min 0 min 0 W/m 6,4 km/h (2 Bft) 94,83 %
08.11.2018 03:50 9,9 C 8,9 C 8,3 C 89 % 1013,8 hPa 0,0 l/m 0 min 0 min 0 W/m 3,2 km/h (1 Bft) 95,74 %
08.11.2018 03:52 9,9 C 8,9 C 8,3 C 89 % 1013,8 hPa 0,0 l/m 0 min 0 min 0 W/m 3,2 km/h (1 Bft) 95,74 %
08.11.2018 03:54 9,9 C 8,9 C 8,3 C 89 % 1013,8 hPa 0,0 l/m 0 min 0 min 0 W/m 6,4 km/h (2 Bft) 93,48 %
08.11.2018 03:56 9,8 C 8,9 C 8,3 C 89 % 1013,8 hPa 0,0 l/m 0 min 0 min 0 W/m 6,4 km/h (2 Bft) 97,87 %
08.11.2018 03:58 9,8 C 8,9 C 8,3 C 89 % 1014,0 hPa 0,0 l/m 0 min 0 min 0 W/m 3,2 km/h (1 Bft) 97,14 %
08.11.2018 04:00 9,8 C 8,9 C 8,3 C 89 % 1014,0 hPa 0,0 l/m 0 min 0 min 0 W/m 3,2 km/h (1 Bft) 98,31 %
08.11.2018 04:05 9,8 C 8,9 C 8,3 C 89 % 1014,1 hPa 0,0 l/m 0 min 0 min 0 W/m 6,4 km/h (2 Bft) 100,00 %
08.11.2018 04:06 9,8 C 8,9 C 8,3 C 89 % 1014,1 hPa 0,0 l/m 0 min 0 min 0 W/m 3,2 km/h (1 Bft) 100,00 %
08.11.2018 04:08 9,7 C 8,9 C 8,3 C 89 % 1014,1 hPa 0,0 l/m 0 min 0 min 0 W/m 3,2 km/h (1 Bft) 97,22 %
08.11.2018 04:10 9,7 C 8,9 C 8,3 C 89 % 1014,1 hPa 0,0 l/m 0 min 0 min 0 W/m 3,2 km/h (1 Bft) 95,65 %
08.11.2018 04:12 9,7 C 9,4 C 8,3 C 89 % 1014,2 hPa 0,0 l/m 0 min 0 min 0 W/m 3,2 km/h (1 Bft) 93,62 %
08.11.2018 04:14 9,7 C 9,4 C 8,3 C 89 % 1014,2 hPa 0,0 l/m 0 min 0 min 0 W/m 6,4 km/h (2 Bft) 95,74 %
08.11.2018 04:16 9,7 C 8,9 C 8,3 C 89 % 1014,4 hPa 0,0 l/m 0 min 0 min 0 W/m 3,2 km/h (1 Bft) 97,87 %
08.11.2018 04:18 9,7 C 9,4 C 8,3 C 89 % 1014,3 hPa 0,0 l/m 0 min 0 min 0 W/m 6,4 km/h (2 Bft) 95,74 %
08.11.2018 04:20 9,7 C 9,4 C 8,3 C 89 % 1014,2 hPa 0,0 l/m 0 min 0 min 0 W/m 0,0 km/h (0 Bft) 94,83 %
08.11.2018 04:22 9,7 C 9,4 C 8,3 C 89 % 1014,3 hPa 0,0 l/m 0 min 0 min 0 W/m 0,0 km/h (0 Bft) 95,74 %
08.11.2018 04:24 9,7 C 9,4 C 8,3 C 89 % 1014,4 hPa 0,0 l/m 0 min 0 min 0 W/m 0,0 km/h (0 Bft) 100,00 %
08.11.2018 04:26 9,7 C 9,4 C 8,9 C 89 % 1014,3 hPa 0,0 l/m 0 min 0 min 0 W/m 0,0 km/h (0 Bft) 95,74 %
08.11.2018 04:28 9,7 C 9,4 C 8,9 C 89 % 1014,3 hPa 0,0 l/m 0 min 0 min 0 W/m 6,4 km/h (2 Bft) 93,62 %
08.11.2018 04:30 9,7 C 9,4 C 8,9 C 89 % 1014,3 hPa 0,0 l/m 0 min 0 min 0 W/m 6,4 km/h (2 Bft) 91,49 %
08.11.2018 04:32 9,7 C 9,4 C 8,9 C 89 % 1014,4 hPa 0,0 l/m 0 min 0 min 0 W/m 3,2 km/h (1 Bft) 97,87 %
08.11.2018 04:34 9,7 C 9,4 C 8,9 C 89 % 1014,5 hPa 0,0 l/m 0 min 0 min 0 W/m 3,2 km/h (1 Bft) 97,83 %
08.11.2018 04:38 9,7 C 9,4 C 8,9 C 89 % 1014,6 hPa 0,0 l/m 0 min 0 min 0 W/m 6,4 km/h (2 Bft) 97,87 %
08.11.2018 04:40 9,7 C 9,4 C 8,9 C 89 % 1014,6 hPa 0,0 l/m 0 min 0 min 0 W/m 6,4 km/h (2 Bft) 95,74 %
08.11.2018 04:42 9,7 C 9,4 C 8,9 C 89 % 1014,6 hPa 0,0 l/m 0 min 0 min 0 W/m 6,4 km/h (2 Bft) 97,87 %
08.11.2018 04:44 9,7 C 9,4 C 8,9 C 89 % 1014,6 hPa 0,0 l/m 0 min 0 min 0 W/m 6,4 km/h (2 Bft) 97,87 %
08.11.2018 04:46 9,7 C 9,4 C 8,9 C 89 % 1014,7 hPa 0,0 l/m 0 min 0 min 0 W/m 9,7 km/h (2 Bft) 95,65 %
08.11.2018 04:48 9,7 C 9,4 C 8,9 C 90 % 1014,7 hPa 0,0 l/m 0 min 0 min 0 W/m 6,4 km/h (2 Bft) 97,87 %
08.11.2018 04:50 9,7 C 9,4 C 8,9 C 90 % 1014,7 hPa 0,0 l/m 0 min 0 min 0 W/m 9,7 km/h (2 Bft) 96,61 %
08.11.2018 04:52 9,8 C 9,4 C 8,9 C 90 % 1014,7 hPa 0,0 l/m 0 min 0 min 0 W/m 9,7 km/h (2 Bft) 97,14 %
08.11.2018 04:54 9,8 C 9,4 C 8,9 C 90 % 1014,7 hPa 0,0 l/m 0 min 0 min 0 W/m 6,4 km/h (2 Bft) 97,87 %
08.11.2018 04:56 9,8 C 9,4 C 8,9 C 90 % 1014,8 hPa 0,0 l/m 0 min 0 min 0 W/m 9,7 km/h (2 Bft) 97,83 %
08.11.2018 04:58 9,8 C 9,4 C 8,9 C 90 % 1014,9 hPa 0,0 l/m 0 min 0 min 0 W/m 9,7 km/h (2 Bft) 97,87 %
08.11.2018 05:00 9,8 C 9,4 C 8,9 C 90 % 1014,9 hPa 0,0 l/m 0 min 0 min 0 W/m 9,7 km/h (2 Bft) 97,87 %
08.11.2018 05:02 9,8 C 9,4 C 8,9 C 90 % 1014,9 hPa 0,0 l/m 0 min 0 min 0 W/m 9,7 km/h (2 Bft) 93,62 %
08.11.2018 05:04 9,9 C 9,4 C 8,9 C 90 % 1014,9 hPa 0,0 l/m 0 min 0 min 0 W/m 9,7 km/h (2 Bft) 95,74 %
08.11.2018 05:05 9,9 C 9,4 C 8,9 C 89 % 1014,9 hPa 0,0 l/m 0 min 0 min 0 W/m 9,7 km/h (2 Bft) 100,00 %
08.11.2018 05:10 9,9 C 9,4 C 8,9 C 89 % 1015,0 hPa 0,0 l/m 0 min 0 min 0 W/m 12,9 km/h (3 Bft) 100,00 %
08.11.2018 05:12 9,9 C 9,4 C 8,9 C 89 % 1015,0 hPa 0,0 l/m 0 min 0 min 0 W/m 6,4 km/h (2 Bft) 100,00 %
08.11.2018 05:14 9,9 C 9,4 C 8,9 C 89 % 1015,1 hPa 0,0 l/m 0 min 0 min 0 W/m 6,4 km/h (2 Bft) 97,87 %
08.11.2018 05:19 9,9 C 9,4 C 8,9 C 89 % 1015,2 hPa 0,0 l/m 0 min 0 min 0 W/m 6,4 km/h (2 Bft) 100,00 %
08.11.2018 05:20 9,9 C 9,4 C 8,9 C 89 % 1015,2 hPa 0,0 l/m 0 min 0 min 0 W/m 6,4 km/h (2 Bft) 100,00 %
08.11.2018 05:22 9,9 C 9,4 C 8,9 C 89 % 1015,2 hPa 0,0 l/m 0 min 0 min 0 W/m 6,4 km/h (2 Bft) 100,00 %
08.11.2018 05:24 10,0 C 9,4 C 8,9 C 89 % 1015,2 hPa 0,0 l/m 0 min 0 min 0 W/m 9,7 km/h (2 Bft) 100,00 %
08.11.2018 05:26 10,0 C 9,4 C 8,9 C 89 % 1015,3 hPa 0,0 l/m 0 min 0 min 0 W/m 6,4 km/h (2 Bft) 100,00 %
08.11.2018 05:28 10,0 C 9,4 C 8,9 C 89 % 1015,3 hPa 0,0 l/m 0 min 0 min 0 W/m 6,4 km/h (2 Bft) 100,00 %
08.11.2018 05:30 10,0 C 9,4 C 8,9 C 89 % 1015,4 hPa 0,0 l/m 0 min 0 min 0 W/m 6,4 km/h (2 Bft) 100,00 %
08.11.2018 05:32 10,0 C 9,4 C 9,4 C 89 % 1015,5 hPa 0,0 l/m 0 min 0 min 0 W/m 6,4 km/h (2 Bft) 100,00 %
08.11.2018 05:34 10,1 C 9,4 C 8,9 C 89 % 1015,5 hPa 0,0 l/m 0 min 0 min 0 W/m 6,4 km/h (2 Bft) 100,00 %
08.11.2018 05:38 10,1 C 10,0 C 9,4 C 89 % 1015,6 hPa 0,0 l/m 0 min 0 min 0 W/m 6,4 km/h (2 Bft) 100,00 %
08.11.2018 05:40 10,1 C 10,0 C 9,4 C 89 % 1015,6 hPa 0,0 l/m 0 min 0 min 0 W/m 6,4 km/h (2 Bft) 100,00 %
08.11.2018 05:42 10,1 C 10,0 C 9,4 C 89 % 1015,6 hPa 0,0 l/m 0 min 0 min 0 W/m 3,2 km/h (1 Bft) 100,00 %
08.11.2018 05:44 10,1 C 10,0 C 8,9 C 89 % 1015,5 hPa 0,0 l/m 0 min 0 min 0 W/m 6,4 km/h (2 Bft) 100,00 %
08.11.2018 05:46 10,1 C 9,4 C 8,9 C 89 % 1015,6 hPa 0,0 l/m 0 min 0 min 0 W/m 6,4 km/h (2 Bft) 100,00 %
08.11.2018 05:48 10,1 C 9,4 C 8,9 C 89 % 1015,6 hPa 0,0 l/m 0 min 0 min 0 W/m 6,4 km/h (2 Bft) 100,00 %
08.11.2018 05:50 10,1 C 10,0 C 8,9 C 89 % 1015,7 hPa 0,0 l/m 0 min 0 min 0 W/m 6,4 km/h (2 Bft) 100,00 %
08.11.2018 05:52 10,1 C 9,4 C 8,9 C 89 % 1015,7 hPa 0,0 l/m 0 min 0 min 0 W/m 3,2 km/h (1 Bft) 97,83 %
08.11.2018 05:54 10,1 C 9,4 C 8,9 C 89 % 1015,7 hPa 0,0 l/m 0 min 0 min 0 W/m 9,7 km/h (2 Bft) 100,00 %
08.11.2018 05:56 10,1 C 9,4 C 8,9 C 89 % 1015,9 hPa 0,0 l/m 0 min 0 min 0 W/m 6,4 km/h (2 Bft) 100,00 %
08.11.2018 05:58 10,1 C 10,0 C 8,9 C 89 % 1015,9 hPa 0,0 l/m 0 min 0 min 0 W/m 6,4 km/h (2 Bft) 97,87 %
08.11.2018 06:00 10,2 C 10,0 C 9,4 C 89 % 1015,9 hPa 0,0 l/m 0 min 0 min 0 W/m 6,4 km/h (2 Bft) 97,87 %
08.11.2018 06:02 10,2 C 10,0 C 9,4 C 89 % 1015,9 hPa 0,0 l/m 0 min 0 min 0 W/m 6,4 km/h (2 Bft) 97,83 %
08.11.2018 06:04 10,2 C 10,0 C 9,4 C 89 % 1015,9 hPa 0,0 l/m 0 min 0 min 0 W/m 16,1 km/h (3 Bft) 97,87 %
08.11.2018 06:08 10,2 C 10,0 C 9,4 C 89 % 1016,1 hPa 0,0 l/m 0 min 0 min 0 W/m 12,9 km/h (3 Bft) 94,68 %
08.11.2018 06:10 10,3 C 10,0 C 9,4 C 89 % 1016,2 hPa 0,0 l/m 0 min 0 min 0 W/m 12,9 km/h (3 Bft) 97,87 %
08.11.2018 06:12 10,3 C 10,0 C 9,4 C 89 % 1016,2 hPa 0,0 l/m 0 min 0 min 0 W/m 3,2 km/h (1 Bft) 97,87 %
08.11.2018 06:14 10,3 C 10,0 C 9,4 C 89 % 1016,2 hPa 0,0 l/m 0 min 0 min 0 W/m 9,7 km/h (2 Bft) 97,87 %
08.11.2018 06:16 10,3 C 10,0 C 9,4 C 89 % 1016,2 hPa 0,0 l/m 0 min 0 min 0 W/m 6,4 km/h (2 Bft) 97,83 %
08.11.2018 06:18 10,4 C 10,0 C 9,4 C 89 % 1016,2 hPa 0,0 l/m 0 min 0 min 0 W/m 12,9 km/h (3 Bft) 97,87 %
08.11.2018 06:20 10,4 C 10,6 C 9,4 C 89 % 1016,2 hPa 0,0 l/m 0 min 0 min 0 W/m 22,5 km/h (4 Bft) 97,87 %
08.11.2018 06:22 10,4 C 10,6 C 9,4 C 89 % 1016,2 hPa 0,0 l/m 0 min 0 min 0 W/m 16,1 km/h (3 Bft) 97,87 %
08.11.2018 06:24 10,5 C 10,6 C 9,4 C 89 % 1016,3 hPa 0,0 l/m 0 min 0 min 0 W/m 9,7 km/h (2 Bft) 97,87 %
08.11.2018 06:26 10,5 C 10,6 C 10,0 C 89 % 1016,2 hPa 0,0 l/m 0 min 0 min 0 W/m 19,3 km/h (3 Bft) 95,65 %
08.11.2018 06:28 10,6 C 10,6 C 10,0 C 89 % 1016,3 hPa 0,0 l/m 0 min 0 min 0 W/m 16,1 km/h (3 Bft) 97,87 %
08.11.2018 06:30 10,6 C 10,6 C 10,0 C 89 % 1016,3 hPa 0,0 l/m 0 min 0 min 0 W/m 16,1 km/h (3 Bft) 97,87 %
08.11.2018 06:32 10,6 C 10,6 C 9,4 C 89 % 1016,3 hPa 0,0 l/m 0 min 0 min 0 W/m 9,7 km/h (2 Bft) 97,87 %
08.11.2018 06:34 10,7 C 10,6 C 10,0 C 89 % 1016,4 hPa 0,0 l/m 0 min 0 min 0 W/m 9,7 km/h (2 Bft) 95,74 %
08.11.2018 06:38 10,7 C 10,6 C 9,4 C 89 % 1016,5 hPa 0,0 l/m 0 min 0 min 0 W/m 12,9 km/h (3 Bft) 96,77 %
08.11.2018 06:40 10,7 C 10,0 C 9,4 C 89 % 1016,5 hPa 0,0 l/m 0 min 0 min 0 W/m 9,7 km/h (2 Bft) 97,87 %
08.11.2018 06:42 10,7 C 10,0 C 9,4 C 89 % 1016,6 hPa 0,0 l/m 0 min 0 min 0 W/m 9,7 km/h (2 Bft) 97,87 %
08.11.2018 06:44 10,7 C 10,0 C 9,4 C 89 % 1016,6 hPa 0,0 l/m 0 min 0 min 0 W/m 6,4 km/h (2 Bft) 97,87 %
08.11.2018 06:46 10,7 C 10,0 C 9,4 C 89 % 1016,5 hPa 0,0 l/m 0 min 0 min 0 W/m 9,7 km/h (2 Bft) 97,87 %
08.11.2018 06:48 10,7 C 10,6 C 9,4 C 89 % 1016,6 hPa 0,0 l/m 0 min 0 min 0 W/m 12,9 km/h (3 Bft) 97,87 %
08.11.2018 06:50 10,8 C 10,6 C 10,0 C 89 % 1016,7 hPa 0,0 l/m 0 min 0 min 0 W/m 16,1 km/h (3 Bft) 100,00 %
08.11.2018 06:52 10,8 C 10,6 C 10,0 C 89 % 1016,6 hPa 0,0 l/m 0 min 0 min 0 W/m 12,9 km/h (3 Bft) 100,00 %
08.11.2018 06:54 10,8 C 10,6 C 10,0 C 89 % 1016,7 hPa 0,0 l/m 0 min 0 min 0 W/m 9,7 km/h (2 Bft) 97,87 %
08.11.2018 06:56 10,8 C 10,6 C 10,0 C 89 % 1016,7 hPa 0,0 l/m 0 min 0 min 0 W/m 12,9 km/h (3 Bft) 97,87 %
08.11.2018 06:58 10,8 C 10,6 C 10,0 C 89 % 1016,7 hPa 0,0 l/m 0 min 0 min 0 W/m 16,1 km/h (3 Bft) 97,87 %
08.11.2018 07:00 10,8 C 10,6 C 10,0 C 89 % 1016,8 hPa 0,0 l/m 0 min 0 min 0 W/m 9,7 km/h (2 Bft) 100,00 %
08.11.2018 07:02 10,8 C 10,6 C 10,0 C 89 % 1016,8 hPa 0,0 l/m 0 min 0 min 0 W/m 12,9 km/h (3 Bft) 100,00 %
08.11.2018 07:04 10,8 C 10,6 C 10,0 C 89 % 1016,9 hPa 0,0 l/m 0 min 0 min 0 W/m 9,7 km/h (2 Bft) 97,87 %
08.11.2018 07:08 10,8 C 10,6 C 10,0 C 89 % 1017,0 hPa 0,0 l/m 0 min 0 min 0 W/m 12,9 km/h (3 Bft) 94,68 %
08.11.2018 07:10 10,8 C 10,6 C 10,0 C 89 % 1017,0 hPa 0,0 l/m 0 min 0 min 0 W/m 16,1 km/h (3 Bft) 95,74 %
08.11.2018 07:12 10,8 C 10,6 C 9,4 C 89 % 1017,0 hPa 0,0 l/m 0 min 0 min 0 W/m 9,7 km/h (2 Bft) 93,48 %
08.11.2018 07:14 10,8 C 10,0 C 9,4 C 89 % 1017,0 hPa 0,0 l/m 0 min 0 min 0 W/m 9,7 km/h (2 Bft) 95,74 %
08.11.2018 07:16 10,8 C 10,0 C 9,4 C 89 % 1017,0 hPa 0,0 l/m 0 min 0 min 0 W/m 9,7 km/h (2 Bft) 95,74 %
08.11.2018 07:18 10,8 C 10,0 C 9,4 C 89 % 1017,1 hPa 0,0 l/m 0 min 0 min 0 W/m 12,9 km/h (3 Bft) 95,74 %
08.11.2018 07:20 10,8 C 10,0 C 9,4 C 89 % 1017,2 hPa 0,0 l/m 0 min 0 min 0 W/m 9,7 km/h (2 Bft) 95,74 %
08.11.2018 07:22 10,8 C 10,0 C 9,4 C 89 % 1017,2 hPa 0,0 l/m 0 min 0 min 0 W/m 6,4 km/h (2 Bft) 93,62 %
08.11.2018 07:24 10,8 C 10,0 C 9,4 C 89 % 1017,2 hPa 0,0 l/m 0 min 0 min 0 W/m 9,7 km/h (2 Bft) 95,65 %
08.11.2018 07:26 10,8 C 10,0 C 9,4 C 89 % 1017,3 hPa 0,0 l/m 0 min 0 min 0 W/m 9,7 km/h (2 Bft) 95,74 %
08.11.2018 07:28 10,8 C 10,0 C 9,4 C 89 % 1017,2 hPa 0,0 l/m 0 min 0 min 0 W/m 6,4 km/h (2 Bft) 95,74 %
08.11.2018 07:30 10,8 C 10,0 C 9,4 C 89 % 1017,3 hPa 0,0 l/m 0 min 0 min 0 W/m 6,4 km/h (2 Bft) 93,62 %
08.11.2018 07:32 10,8 C 10,0 C 9,4 C 89 % 1017,3 hPa 0,0 l/m 0 min 0 min 0 W/m 6,4 km/h (2 Bft) 95,74 %
08.11.2018 07:34 10,8 C 10,0 C 9,4 C 89 % 1017,4 hPa 0,0 l/m 0 min 0 min 0 W/m 3,2 km/h (1 Bft) 95,74 %
08.11.2018 07:38 10,8 C 10,0 C 9,4 C 89 % 1017,4 hPa 0,0 l/m 0 min 0 min 0 W/m 6,4 km/h (2 Bft) 95,70 %
08.11.2018 07:40 10,8 C 9,4 C 9,4 C 89 % 1017,4 hPa 0,0 l/m 0 min 0 min 0 W/m 3,2 km/h (1 Bft) 93,62 %
08.11.2018 07:42 10,7 C 9,4 C 9,4 C 88 % 1017,5 hPa 0,0 l/m 0 min 0 min 0 W/m 3,2 km/h (1 Bft) 93,62 %
08.11.2018 07:44 10,7 C 9,4 C 8,9 C 89 % 1017,5 hPa 0,0 l/m 0 min 0 min 2 W/m 6,4 km/h (2 Bft) 95,74 %
08.11.2018 07:46 10,7 C 9,4 C 8,9 C 89 % 1017,5 hPa 0,0 l/m 0 min 0 min 5 W/m 9,7 km/h (2 Bft) 93,62 %
08.11.2018 07:48 10,7 C 9,4 C 8,9 C 89 % 1017,5 hPa 0,0 l/m 0 min 0 min 5 W/m 6,4 km/h (2 Bft) 93,48 %
08.11.2018 07:50 10,7 C 9,4 C 8,9 C 89 % 1017,6 hPa 0,0 l/m 0 min 0 min 5 W/m 6,4 km/h (2 Bft) 95,74 %
08.11.2018 07:52 10,6 C 9,4 C 8,9 C 89 % 1017,6 hPa 0,0 l/m 0 min 0 min 7 W/m 6,4 km/h (2 Bft) 95,74 %
08.11.2018 07:54 10,6 C 9,4 C 8,9 C 89 % 1017,6 hPa 0,0 l/m 0 min 0 min 7 W/m 9,7 km/h (2 Bft) 95,74 %
08.11.2018 07:56 10,6 C 9,4 C 8,9 C 89 % 1017,7 hPa 0,0 l/m 0 min 0 min 9 W/m 6,4 km/h (2 Bft) 97,87 %
08.11.2018 07:58 10,6 C 9,4 C 8,9 C 89 % 1017,7 hPa 0,0 l/m 0 min 0 min 10 W/m 6,4 km/h (2 Bft) 97,87 %
08.11.2018 08:00 10,5 C 9,4 C 8,9 C 89 % 1017,8 hPa 0,0 l/m 0 min 0 min 11 W/m 6,4 km/h (2 Bft) 97,83 %
08.11.2018 08:02 10,5 C 9,4 C 8,9 C 89 % 1017,7 hPa 0,0 l/m 0 min 0 min 12 W/m 3,2 km/h (1 Bft) 97,87 %
08.11.2018 08:04 10,4 C 8,9 C 8,9 C 89 % 1017,8 hPa 0,0 l/m 0 min 0 min 12 W/m 3,2 km/h (1 Bft) 95,74 %
08.11.2018 08:08 10,4 C 8,9 C 8,3 C 89 % 1017,8 hPa 0,0 l/m 0 min 0 min 14 W/m 3,2 km/h (1 Bft) 97,87 %
08.11.2018 08:10 10,4 C 8,9 C 8,3 C 89 % 1017,9 hPa 0,0 l/m 0 min 0 min 16 W/m 3,2 km/h (1 Bft) 100,00 %
08.11.2018 08:12 10,3 C 8,9 C 8,3 C 89 % 1017,9 hPa 0,0 l/m 0 min 0 min 18 W/m 3,2 km/h (1 Bft) 100,00 %
08.11.2018 08:14 10,3 C 8,9 C 8,3 C 89 % 1017,9 hPa 0,0 l/m 0 min 0 min 19 W/m 3,2 km/h (1 Bft) 100,00 %
08.11.2018 08:16 10,3 C 8,9 C 8,3 C 89 % 1017,9 hPa 0,0 l/m 0 min 0 min 19 W/m 3,2 km/h (1 Bft) 100,00 %
08.11.2018 08:18 10,2 C 8,9 C 8,3 C 89 % 1018,0 hPa 0,0 l/m 0 min 0 min 21 W/m 9,7 km/h (2 Bft) 100,00 %
08.11.2018 08:20 10,2 C 8,9 C 8,3 C 89 % 1018,0 hPa 0,0 l/m 0 min 0 min 23 W/m 6,4 km/h (2 Bft) 100,00 %
08.11.2018 08:22 10,2 C 9,4 C 8,3 C 89 % 1018,0 hPa 0,0 l/m 0 min 0 min 25 W/m 3,2 km/h (1 Bft) 100,00 %
08.11.2018 08:24 10,2 C 9,4 C 8,3 C 89 % 1018,0 hPa 0,0 l/m 0 min 0 min 25 W/m 3,2 km/h (1 Bft) 97,87 %
08.11.2018 08:26 10,1 C 9,4 C 8,3 C 89 % 1018,1 hPa 0,0 l/m 0 min 0 min 26 W/m 3,2 km/h (1 Bft) 100,00 %
08.11.2018 08:28 10,1 C 9,4 C 8,9 C 89 % 1018,0 hPa 0,0 l/m 0 min 0 min 26 W/m 6,4 km/h (2 Bft) 100,00 %
08.11.2018 08:30 10,1 C 9,4 C 8,9 C 89 % 1018,1 hPa 0,0 l/m 0 min 0 min 26 W/m 9,7 km/h (2 Bft) 100,00 %
08.11.2018 08:32 10,1 C 9,4 C 8,9 C 90 % 1018,2 hPa 0,0 l/m 0 min 0 min 27 W/m 6,4 km/h (2 Bft) 97,87 %
08.11.2018 08:34 10,0 C 9,4 C 8,9 C 90 % 1018,2 hPa 0,0 l/m 0 min 0 min 28 W/m 3,2 km/h (1 Bft) 97,83 %
08.11.2018 08:38 10,0 C 9,4 C 8,9 C 90 % 1018,2 hPa 0,0 l/m 0 min 0 min 29 W/m 6,4 km/h (2 Bft) 100,00 %
08.11.2018 08:40 10,0 C 9,4 C 8,9 C 90 % 1018,3 hPa 0,0 l/m 0 min 0 min 30 W/m 6,4 km/h (2 Bft) 100,00 %
08.11.2018 08:42 10,0 C 9,4 C 8,9 C 90 % 1018,3 hPa 0,0 l/m 0 min 0 min 30 W/m 6,4 km/h (2 Bft) 97,87 %
08.11.2018 08:44 10,0 C 9,4 C 8,9 C 90 % 1018,3 hPa 0,0 l/m 0 min 0 min 30 W/m 3,2 km/h (1 Bft) 95,74 %
08.11.2018 08:46 10,0 C 9,4 C 8,9 C 90 % 1018,3 hPa 0,0 l/m 0 min 0 min 30 W/m 12,9 km/h (3 Bft) 97,83 %
08.11.2018 08:48 10,0 C 9,4 C 8,9 C 91 % 1018,4 hPa 0,0 l/m 0 min 0 min 32 W/m 6,4 km/h (2 Bft) 97,87 %
08.11.2018 08:50 10,0 C 9,4 C 8,9 C 91 % 1018,4 hPa 0,0 l/m 0 min 0 min 33 W/m 9,7 km/h (2 Bft) 97,87 %
08.11.2018 08:52 9,9 C 9,4 C 8,9 C 91 % 1018,4 hPa 0,0 l/m 0 min 0 min 33 W/m 9,7 km/h (2 Bft) 95,92 %
08.11.2018 08:54 9,9 C 9,4 C 8,9 C 91 % 1018,4 hPa 0,0 l/m 0 min 0 min 34 W/m 3,2 km/h (1 Bft) 97,87 %
08.11.2018 08:56 9,9 C 10,0 C 8,9 C 91 % 1018,5 hPa 0,0 l/m 0 min 0 min 35 W/m 6,4 km/h (2 Bft) 97,87 %
08.11.2018 08:58 9,9 C 10,0 C 8,9 C 91 % 1018,4 hPa 0,0 l/m 0 min 0 min 43 W/m 12,9 km/h (3 Bft) 93,48 %
08.11.2018 09:00 9,9 C 11,1 C 8,9 C 91 % 1018,5 hPa 0,0 l/m 2 min 0 min 112 W/m 9,7 km/h (2 Bft) 95,74 %
08.11.2018 09:02 10,0 C 12,2 C 8,9 C 91 % 1018,5 hPa 0,0 l/m 2 min 0 min 148 W/m 3,2 km/h (1 Bft) 97,87 %
08.11.2018 09:04 10,0 C 12,8 C 8,9 C 91 % 1018,6 hPa 0,0 l/m 2 min 0 min 157 W/m 6,4 km/h (2 Bft) 97,87 %
08.11.2018 09:08 10,1 C 13,3 C 8,9 C 91 % 1018,6 hPa 0,0 l/m 4 min 0 min 167 W/m 9,7 km/h (2 Bft) 97,85 %
08.11.2018 09:10 10,1 C 13,9 C 9,4 C 91 % 1018,6 hPa 0,0 l/m 2 min 0 min 178 W/m 9,7 km/h (2 Bft) 97,87 %
08.11.2018 09:12 10,2 C 14,4 C 9,4 C 91 % 1018,6 hPa 0,0 l/m 2 min 0 min 184 W/m 9,7 km/h (2 Bft) 97,87 %
08.11.2018 09:14 10,3 C 14,4 C 9,4 C 91 % 1018,6 hPa 0,0 l/m 2 min 0 min 190 W/m 6,4 km/h (2 Bft) 97,87 %
08.11.2018 09:16 10,3 C 14,4 C 9,4 C 91 % 1018,6 hPa 0,0 l/m 2 min 0 min 196 W/m 6,4 km/h (2 Bft) 91,49 %
08.11.2018 09:18 10,4 C 15,0 C 9,4 C 91 % 1018,7 hPa 0,0 l/m 2 min 0 min 202 W/m 6,4 km/h (2 Bft) 95,74 %
08.11.2018 09:20 10,4 C 15,0 C 9,4 C 91 % 1018,7 hPa 0,0 l/m 2 min 0 min 207 W/m 6,4 km/h (2 Bft) 95,65 %
08.11.2018 09:22 10,6 C 15,6 C 9,4 C 91 % 1018,6 hPa 0,0 l/m 2 min 0 min 213 W/m 9,7 km/h (2 Bft) 95,74 %
08.11.2018 09:24 10,6 C 14,4 C 9,4 C 91 % 1018,7 hPa 0,0 l/m 2 min 0 min 218 W/m 6,4 km/h (2 Bft) 97,87 %
08.11.2018 09:26 10,7 C 14,4 C 9,4 C 91 % 1018,7 hPa 0,0 l/m 2 min 0 min 219 W/m 9,7 km/h (2 Bft) 95,74 %
08.11.2018 09:28 10,8 C 14,4 C 9,4 C 91 % 1018,8 hPa 0,0 l/m 2 min 0 min 229 W/m 9,7 km/h (2 Bft) 100,00 %
08.11.2018 09:30 10,8 C 15,0 C 10,0 C 90 % 1018,8 hPa 0,0 l/m 2 min 0 min 233 W/m 9,7 km/h (2 Bft) 97,87 %
08.11.2018 09:32 10,9 C 15,6 C 10,0 C 90 % 1018,8 hPa 0,0 l/m 2 min 0 min 239 W/m 9,7 km/h (2 Bft) 100,00 %
08.11.2018 09:34 11,0 C 15,6 C 10,0 C 90 % 1018,8 hPa 0,0 l/m 2 min 0 min 244 W/m 22,5 km/h (4 Bft) 100,00 %
08.11.2018 09:38 11,2 C 15,6 C 10,0 C 89 % 1018,8 hPa 0,0 l/m 4 min 0 min 254 W/m 9,7 km/h (2 Bft) 98,78 %
08.11.2018 09:40 11,2 C 15,6 C 10,0 C 89 % 1018,9 hPa 0,0 l/m 2 min 0 min 262 W/m 12,9 km/h (3 Bft) 100,00 %
08.11.2018 09:42 11,3 C 15,0 C 10,0 C 88 % 1018,9 hPa 0,0 l/m 2 min 0 min 265 W/m 9,7 km/h (2 Bft) 97,87 %
08.11.2018 09:44 11,4 C 15,6 C 10,0 C 88 % 1018,8 hPa 0,0 l/m 2 min 0 min 268 W/m 9,7 km/h (2 Bft) 100,00 %
08.11.2018 09:46 11,4 C 14,4 C 10,0 C 88 % 1018,9 hPa 0,0 l/m 2 min 0 min 231 W/m 9,7 km/h (2 Bft) 100,00 %
08.11.2018 09:48 11,5 C 13,3 C 10,0 C 87 % 1018,9 hPa 0,0 l/m 2 min 0 min 255 W/m 9,7 km/h (2 Bft) 100,00 %
08.11.2018 09:50 11,6 C 13,3 C 10,6 C 87 % 1018,9 hPa 0,0 l/m 2 min 0 min 236 W/m 6,4 km/h (2 Bft) 100,00 %
08.11.2018 09:52 11,6 C 13,9 C 10,6 C 86 % 1018,9 hPa 0,0 l/m 2 min 0 min 175 W/m 6,4 km/h (2 Bft) 100,00 %
08.11.2018 09:54 11,7 C 14,4 C 10,6 C 87 % 1019,0 hPa 0,0 l/m 2 min 0 min 193 W/m 9,7 km/h (2 Bft) 100,00 %
08.11.2018 09:56 11,7 C 15,6 C 10,6 C 86 % 1019,0 hPa 0,0 l/m 2 min 0 min 240 W/m 9,7 km/h (2 Bft) 100,00 %
08.11.2018 09:58 11,7 C 15,0 C 10,6 C 85 % 1019,1 hPa 0,0 l/m 2 min 0 min 273 W/m 9,7 km/h (2 Bft) 100,00 %
08.11.2018 10:00 11,7 C 15,6 C 10,6 C 85 % 1019,1 hPa 0,0 l/m 2 min 0 min 293 W/m 12,9 km/h (3 Bft) 100,00 %
08.11.2018 10:02 11,7 C 15,6 C 10,6 C 85 % 1019,1 hPa 0,0 l/m 2 min 0 min 297 W/m 9,7 km/h (2 Bft) 97,87 %
08.11.2018 10:04 11,7 C 16,1 C 10,6 C 85 % 1019,1 hPa 0,0 l/m 2 min 0 min 292 W/m 9,7 km/h (2 Bft) 100,00 %
08.11.2018 10:08 11,8 C 16,7 C 10,6 C 85 % 1019,2 hPa 0,0 l/m 4 min 0 min 271 W/m 9,7 km/h (2 Bft) 100,00 %
08.11.2018 10:10 11,9 C 17,2 C 10,6 C 85 % 1019,2 hPa 0,0 l/m 2 min 0 min 299 W/m 6,4 km/h (2 Bft) 95,74 %
08.11.2018 10:12 12,0 C 16,7 C 10,6 C 85 % 1019,2 hPa 0,0 l/m 2 min 0 min 311 W/m 9,7 km/h (2 Bft) 97,87 %
08.11.2018 10:14 12,1 C 17,8 C 10,6 C 85 % 1019,2 hPa 0,0 l/m 2 min 0 min 331 W/m 9,7 km/h (2 Bft) 97,87 %
08.11.2018 10:16 12,1 C 17,2 C 10,6 C 84 % 1019,3 hPa 0,0 l/m 2 min 0 min 338 W/m 9,7 km/h (2 Bft) 95,65 %
08.11.2018 10:18 12,2 C 17,2 C 10,6 C 84 % 1019,3 hPa 0,0 l/m 2 min 0 min 338 W/m 6,4 km/h (2 Bft) 97,87 %
08.11.2018 10:20 12,2 C 16,7 C 10,6 C 84 % 1019,3 hPa 0,0 l/m 2 min 0 min 341 W/m 9,7 km/h (2 Bft) 95,74 %
08.11.2018 10:22 12,2 C 16,7 C 10,6 C 84 % 1019,4 hPa 0,0 l/m 2 min 0 min 339 W/m 9,7 km/h (2 Bft) 97,92 %
08.11.2018 10:24 12,3 C 15,6 C 10,6 C 83 % 1019,3 hPa 0,0 l/m 2 min 0 min 335 W/m 9,7 km/h (2 Bft) 95,74 %
08.11.2018 10:26 12,3 C 13,9 C 10,6 C 83 % 1019,4 hPa 0,0 l/m 2 min 0 min 276 W/m 6,4 km/h (2 Bft) 97,87 %
08.11.2018 10:28 12,3 C 13,9 C 10,6 C 83 % 1019,4 hPa 0,0 l/m 2 min 0 min 176 W/m 9,7 km/h (2 Bft) 95,65 %
08.11.2018 10:30 12,3 C 13,9 C 10,6 C 83 % 1019,4 hPa 0,0 l/m 2 min 0 min 203 W/m 9,7 km/h (2 Bft) 95,74 %
08.11.2018 10:32 12,3 C 13,9 C 10,6 C 82 % 1019,5 hPa 0,0 l/m 0 min 0 min 132 W/m 6,4 km/h (2 Bft) 91,49 %
08.11.2018 10:34 12,3 C 13,3 C 10,6 C 82 % 1019,5 hPa 0,0 l/m 0 min 0 min 117 W/m 9,7 km/h (2 Bft) 97,87 %
08.11.2018 10:38 12,3 C 12,8 C 10,6 C 83 % 1019,5 hPa 0,0 l/m 0 min 0 min 148 W/m 12,9 km/h (3 Bft) 95,74 %
08.11.2018 10:40 12,3 C 13,3 C 10,6 C 82 % 1019,5 hPa 0,0 l/m 0 min 0 min 110 W/m 6,4 km/h (2 Bft) 97,83 %
08.11.2018 10:42 12,3 C 13,9 C 10,6 C 82 % 1019,4 hPa 0,0 l/m 2 min 0 min 250 W/m 6,4 km/h (2 Bft) 97,87 %
08.11.2018 10:44 12,3 C 14,4 C 10,6 C 82 % 1019,5 hPa 0,0 l/m 0 min 0 min 162 W/m 6,4 km/h (2 Bft) 97,87 %
08.11.2018 10:46 12,3 C 14,4 C 11,1 C 82 % 1019,6 hPa 0,0 l/m 0 min 0 min 115 W/m 9,7 km/h (2 Bft) 97,87 %
08.11.2018 10:48 12,3 C 14,4 C 10,6 C 82 % 1019,6 hPa 0,0 l/m 0 min 0 min 109 W/m 9,7 km/h (2 Bft) 95,74 %
08.11.2018 10:50 12,3 C 15,0 C 11,1 C 82 % 1019,6 hPa 0,0 l/m 2 min 0 min 224 W/m 6,4 km/h (2 Bft) 97,87 %
08.11.2018 10:52 12,4 C 14,4 C 11,1 C 82 % 1019,7 hPa 0,0 l/m 2 min 0 min 255 W/m 9,7 km/h (2 Bft) 97,83 %
08.11.2018 10:54 12,4 C 14,4 C 11,1 C 82 % 1019,8 hPa 0,0 l/m 2 min 0 min 310 W/m 9,7 km/h (2 Bft) 97,87 %
08.11.2018 10:56 12,4 C 13,9 C 11,1 C 82 % 1019,8 hPa 0,0 l/m 2 min 0 min 323 W/m 9,7 km/h (2 Bft) 91,49 %
08.11.2018 10:58 12,4 C 13,3 C 11,1 C 82 % 1019,8 hPa 0,0 l/m 2 min 0 min 249 W/m 9,7 km/h (2 Bft) 97,87 %
08.11.2018 11:00 12,4 C 13,3 C 11,1 C 82 % 1019,8 hPa 0,0 l/m 2 min 0 min 221 W/m 6,4 km/h (2 Bft) 95,74 %
08.11.2018 11:02 12,4 C 14,4 C 11,1 C 82 % 1019,8 hPa 0,0 l/m 2 min 0 min 213 W/m 9,7 km/h (2 Bft) 97,87 %
08.11.2018 11:04 12,4 C 15,0 C 11,1 C 82 % 1019,8 hPa 0,0 l/m 2 min 0 min 224 W/m 6,4 km/h (2 Bft) 97,83 %
08.11.2018 11:08 12,4 C 16,7 C 11,1 C 82 % 1019,9 hPa 0,0 l/m 4 min 0 min 339 W/m 12,9 km/h (3 Bft) 95,74 %
08.11.2018 11:10 12,4 C 17,2 C 11,1 C 82 % 1019,8 hPa 0,0 l/m 2 min 0 min 398 W/m 6,4 km/h (2 Bft) 95,74 %
08.11.2018 11:12 12,5 C 18,3 C 11,1 C 82 % 1019,8 hPa 0,0 l/m 2 min 0 min 404 W/m 9,7 km/h (2 Bft) 95,74 %
08.11.2018 11:14 12,5 C 18,3 C 11,1 C 82 % 1019,9 hPa 0,0 l/m 2 min 0 min 405 W/m 9,7 km/h (2 Bft) 95,74 %
08.11.2018 11:16 12,6 C 18,3 C 11,1 C 81 % 1019,9 hPa 0,0 l/m 2 min 0 min 398 W/m 6,4 km/h (2 Bft) 93,48 %
08.11.2018 11:18 12,6 C 18,9 C 11,1 C 82 % 1019,8 hPa 0,0 l/m 2 min 0 min 355 W/m 6,4 km/h (2 Bft) 95,74 %
08.11.2018 11:20 12,7 C 19,4 C 11,1 C 82 % 1019,9 hPa 0,0 l/m 2 min 0 min 347 W/m 12,9 km/h (3 Bft) 93,62 %
08.11.2018 11:22 12,7 C 18,3 C 11,1 C 81 % 1019,9 hPa 0,0 l/m 2 min 0 min 304 W/m 16,1 km/h (3 Bft) 95,74 %
08.11.2018 11:24 12,8 C 18,9 C 11,1 C 81 % 1019,9 hPa 0,0 l/m 2 min 0 min 391 W/m 6,4 km/h (2 Bft) 95,74 %
08.11.2018 11:26 12,8 C 18,9 C 11,1 C 81 % 1019,9 hPa 0,0 l/m 2 min 0 min 407 W/m 6,4 km/h (2 Bft) 91,49 %
08.11.2018 11:28 12,9 C 18,9 C 11,1 C 80 % 1019,9 hPa 0,0 l/m 2 min 0 min 395 W/m 19,3 km/h (3 Bft) 93,48 %
08.11.2018 11:30 12,9 C 19,4 C 11,1 C 80 % 1019,9 hPa 0,0 l/m 2 min 0 min 405 W/m 19,3 km/h (3 Bft) 95,74 %
08.11.2018 11:32 13,1 C 20,0 C 11,1 C 80 % 1019,9 hPa 0,0 l/m 2 min 0 min 415 W/m 6,4 km/h (2 Bft) 95,74 %
08.11.2018 11:34 13,1 C 19,4 C 11,1 C 80 % 1019,9 hPa 0,0 l/m 2 min 0 min 424 W/m 9,7 km/h (2 Bft) 93,62 %
08.11.2018 11:38 13,2 C 20,0 C 11,1 C 79 % 1019,9 hPa 0,0 l/m 4 min 0 min 425 W/m 9,7 km/h (2 Bft) 94,68 %
08.11.2018 11:40 13,3 C 20,0 C 11,1 C 79 % 1019,9 hPa 0,0 l/m 2 min 0 min 427 W/m 9,7 km/h (2 Bft) 95,65 %
08.11.2018 11:42 13,3 C 21,1 C 11,1 C 79 % 1019,9 hPa 0,0 l/m 2 min 0 min 427 W/m 9,7 km/h (2 Bft) 95,74 %
08.11.2018 11:44 13,4 C 20,0 C 11,1 C 79 % 1019,9 hPa 0,0 l/m 2 min 0 min 419 W/m 6,4 km/h (2 Bft) 95,74 %
08.11.2018 11:46 13,4 C 19,4 C 11,1 C 78 % 1019,9 hPa 0,0 l/m 2 min 0 min 426 W/m 6,4 km/h (2 Bft) 95,74 %
08.11.2018 11:48 13,5 C 20,0 C 11,1 C 78 % 1019,9 hPa 0,0 l/m 2 min 0 min 427 W/m 9,7 km/h (2 Bft) 97,87 %
08.11.2018 11:50 13,6 C 21,7 C 11,1 C 78 % 1019,8 hPa 0,0 l/m 2 min 0 min 428 W/m 6,4 km/h (2 Bft) 95,74 %
08.11.2018 11:52 13,7 C 21,1 C 11,7 C 78 % 1019,8 hPa 0,0 l/m 2 min 0 min 429 W/m 6,4 km/h (2 Bft) 97,83 %
08.11.2018 11:54 13,7 C 21,7 C 11,7 C 78 % 1019,8 hPa 0,0 l/m 2 min 0 min 428 W/m 6,4 km/h (2 Bft) 97,87 %
08.11.2018 11:56 13,9 C 23,3 C 11,7 C 78 % 1019,9 hPa 0,0 l/m 2 min 0 min 426 W/m 6,4 km/h (2 Bft) 97,87 %
08.11.2018 11:58 14,0 C 23,3 C 11,7 C 78 % 1019,9 hPa 0,0 l/m 2 min 0 min 427 W/m 6,4 km/h (2 Bft) 93,62 %
08.11.2018 12:00 14,2 C 22,8 C 11,7 C 78 % 1019,9 hPa 0,0 l/m 2 min 0 min 428 W/m 3,2 km/h (1 Bft) 97,87 %
08.11.2018 12:02 14,2 C 22,2 C 11,7 C 77 % 1019,9 hPa 0,0 l/m 2 min 0 min 429 W/m 6,4 km/h (2 Bft) 97,83 %
08.11.2018 12:04 14,2 C 22,8 C 11,7 C 76 % 1019,8 hPa 0,0 l/m 2 min 0 min 432 W/m 9,7 km/h (2 Bft) 97,87 %
08.11.2018 12:08 14,4 C 22,8 C 12,2 C 75 % 1019,8 hPa 0,0 l/m 4 min 0 min 434 W/m 6,4 km/h (2 Bft) 97,87 %
08.11.2018 12:10 14,6 C 22,2 C 12,2 C 75 % 1019,8 hPa 0,0 l/m 2 min 0 min 434 W/m 6,4 km/h (2 Bft) 97,87 %
08.11.2018 12:12 14,6 C 22,2 C 12,8 C 74 % 1019,9 hPa 0,0 l/m 2 min 0 min 428 W/m 6,4 km/h (2 Bft) 95,74 %
08.11.2018 12:14 14,7 C 23,3 C 15,0 C 74 % 1019,9 hPa 0,0 l/m 2 min 0 min 436 W/m 6,4 km/h (2 Bft) 97,83 %
08.11.2018 12:16 14,8 C 22,2 C 16,7 C 73 % 1019,9 hPa 0,0 l/m 2 min 0 min 436 W/m 9,7 km/h (2 Bft) 97,87 %
08.11.2018 12:18 14,9 C 21,1 C 16,7 C 73 % 1020,0 hPa 0,0 l/m 2 min 0 min 428 W/m 9,7 km/h (2 Bft) 97,87 %
08.11.2018 12:20 15,0 C 22,2 C 15,6 C 73 % 1019,9 hPa 0,0 l/m 2 min 0 min 432 W/m 9,7 km/h (2 Bft) 97,87 %
08.11.2018 12:22 15,1 C 22,8 C 14,4 C 73 % 1019,9 hPa 0,0 l/m 2 min 0 min 429 W/m 6,4 km/h (2 Bft) 97,87 %
08.11.2018 12:24 15,2 C 23,9 C 13,9 C 73 % 1019,9 hPa 0,0 l/m 2 min 0 min 431 W/m 6,4 km/h (2 Bft) 97,87 %
08.11.2018 12:26 15,3 C 24,4 C 13,3 C 73 % 1019,9 hPa 0,0 l/m 2 min 0 min 447 W/m 3,2 km/h (1 Bft) 97,83 %
08.11.2018 12:28 15,3 C 23,3 C 12,8 C 72 % 1019,9 hPa 0,0 l/m 2 min 0 min 450 W/m 3,2 km/h (1 Bft) 97,87 %
08.11.2018 12:30 15,4 C 21,7 C 12,2 C 71 % 1019,8 hPa 0,0 l/m 2 min 0 min 448 W/m 9,7 km/h (2 Bft) 95,74 %
08.11.2018 12:32 15,4 C 21,7 C 12,2 C 71 % 1019,9 hPa 0,0 l/m 2 min 0 min 453 W/m 3,2 km/h (1 Bft) 95,74 %
08.11.2018 12:34 15,4 C 22,2 C 12,2 C 70 % 1019,9 hPa 0,0 l/m 2 min 0 min 452 W/m 6,4 km/h (2 Bft) 97,87 %
08.11.2018 12:38 15,6 C 24,4 C 12,2 C 70 % 1019,8 hPa 0,0 l/m 4 min 0 min 438 W/m 6,4 km/h (2 Bft) 97,85 %
08.11.2018 12:40 15,6 C 23,3 C 12,2 C 71 % 1019,8 hPa 0,0 l/m 2 min 0 min 380 W/m 3,2 km/h (1 Bft) 97,87 %
08.11.2018 12:42 15,7 C 23,9 C 12,2 C 71 % 1019,8 hPa 0,0 l/m 2 min 0 min 336 W/m 6,4 km/h (2 Bft) 97,87 %
08.11.2018 12:44 15,7 C 23,3 C 12,2 C 71 % 1019,8 hPa 0,0 l/m 2 min 0 min 419 W/m 6,4 km/h (2 Bft) 95,74 %
08.11.2018 12:46 15,7 C 22,2 C 12,2 C 69 % 1019,8 hPa 0,0 l/m 2 min 0 min 429 W/m 3,2 km/h (1 Bft) 95,74 %
08.11.2018 12:48 15,8 C 21,1 C 12,2 C 69 % 1019,8 hPa 0,0 l/m 2 min 0 min 431 W/m 9,7 km/h (2 Bft) 95,74 %
08.11.2018 12:50 15,8 C 18,9 C 12,2 C 68 % 1019,8 hPa 0,0 l/m 2 min 0 min 407 W/m 6,4 km/h (2 Bft) 95,65 %
08.11.2018 12:52 15,8 C 19,4 C 12,2 C 68 % 1019,9 hPa 0,0 l/m 2 min 0 min 256 W/m 6,4 km/h (2 Bft) 93,75 %
08.11.2018 12:54 15,8 C 21,1 C 12,2 C 68 % 1019,8 hPa 0,0 l/m 2 min 0 min 427 W/m 6,4 km/h (2 Bft) 93,62 %
08.11.2018 12:56 15,9 C 22,8 C 12,2 C 69 % 1019,8 hPa 0,0 l/m 2 min 0 min 425 W/m 3,2 km/h (1 Bft) 97,87 %
08.11.2018 12:58 15,8 C 21,7 C 12,2 C 69 % 1019,8 hPa 0,0 l/m 2 min 0 min 382 W/m 6,4 km/h (2 Bft) 95,74 %
08.11.2018 13:00 15,8 C 19,4 C 11,7 C 68 % 1019,8 hPa 0,0 l/m 0 min 0 min 137 W/m 3,2 km/h (1 Bft) 93,48 %
08.11.2018 13:02 15,7 C 17,2 C 11,7 C 68 % 1019,8 hPa 0,0 l/m 0 min 0 min 81 W/m 6,4 km/h (2 Bft) 93,62 %
08.11.2018 13:04 15,6 C 16,7 C 11,7 C 68 % 1019,7 hPa 0,0 l/m 0 min 0 min 63 W/m 6,4 km/h (2 Bft) 95,74 %
08.11.2018 13:08 15,4 C 14,4 C 11,1 C 69 % 1019,7 hPa 0,0 l/m 0 min 0 min 56 W/m 3,2 km/h (1 Bft) 96,81 %
08.11.2018 13:10 15,3 C 13,9 C 11,1 C 69 % 1019,8 hPa 0,0 l/m 0 min 0 min 61 W/m 0,0 km/h (0 Bft) 97,87 %
08.11.2018 13:12 15,2 C 13,9 C 11,1 C 69 % 1019,7 hPa 0,0 l/m 0 min 0 min 70 W/m 3,2 km/h (1 Bft) 97,83 %
08.11.2018 13:14 15,2 C 13,9 C 11,1 C 69 % 1019,6 hPa 0,0 l/m 0 min 0 min 80 W/m 0,0 km/h (0 Bft) 97,87 %
08.11.2018 13:16 15,0 C 13,9 C 11,1 C 69 % 1019,7 hPa 0,0 l/m 0 min 0 min 85 W/m 3,2 km/h (1 Bft) 97,87 %
08.11.2018 13:18 14,9 C 13,9 C 11,1 C 69 % 1019,7 hPa 0,0 l/m 0 min 0 min 79 W/m 6,4 km/h (2 Bft) 97,87 %
08.11.2018 13:20 14,9 C 15,0 C 11,1 C 69 % 1019,6 hPa 0,0 l/m 0 min 0 min 105 W/m 3,2 km/h (1 Bft) 97,87 %
08.11.2018 13:22 14,8 C 16,7 C 11,1 C 70 % 1019,6 hPa 0,0 l/m 2 min 0 min 281 W/m 0,0 km/h (0 Bft) 97,56 %
08.11.2018 13:24 14,8 C 16,1 C 11,1 C 70 % 1019,7 hPa 0,0 l/m 0 min 0 min 174 W/m 3,2 km/h (1 Bft) 97,87 %
08.11.2018 13:26 14,7 C 17,8 C 11,7 C 70 % 1019,6 hPa 0,0 l/m 2 min 0 min 223 W/m 3,2 km/h (1 Bft) 97,87 %
08.11.2018 13:28 14,7 C 16,7 C 11,7 C 70 % 1019,6 hPa 0,0 l/m 0 min 0 min 161 W/m 6,4 km/h (2 Bft) 97,83 %
08.11.2018 13:30 14,6 C 16,1 C 11,7 C 70 % 1019,6 hPa 0,0 l/m 0 min 0 min 127 W/m 3,2 km/h (1 Bft) 97,87 %
08.11.2018 13:32 14,6 C 16,1 C 11,7 C 69 % 1019,6 hPa 0,0 l/m 2 min 0 min 181 W/m 0,0 km/h (0 Bft) 97,87 %
08.11.2018 13:34 14,6 C 16,1 C 11,7 C 70 % 1019,6 hPa 0,0 l/m 0 min 0 min 169 W/m 0,0 km/h (0 Bft) 97,87 %
08.11.2018 13:38 14,4 C 15,0 C 11,7 C 70 % 1019,6 hPa 0,0 l/m 0 min 0 min 99 W/m 6,4 km/h (2 Bft) 95,74 %
08.11.2018 13:40 14,4 C 14,4 C 11,7 C 70 % 1019,5 hPa 0,0 l/m 0 min 0 min 91 W/m 3,2 km/h (1 Bft) 95,65 %
08.11.2018 13:42 14,3 C 13,9 C 11,7 C 71 % 1019,5 hPa 0,0 l/m 0 min 0 min 86 W/m 3,2 km/h (1 Bft) 97,87 %
08.11.2018 13:44 14,3 C 13,9 C 11,7 C 71 % 1019,4 hPa 0,0 l/m 0 min 0 min 89 W/m 3,2 km/h (1 Bft) 97,87 %
08.11.2018 13:46 14,2 C 13,9 C 11,7 C 73 % 1019,4 hPa 0,0 l/m 0 min 0 min 91 W/m 3,2 km/h (1 Bft) 95,74 %
08.11.2018 13:48 14,2 C 13,9 C 11,7 C 74 % 1019,4 hPa 0,0 l/m 0 min 0 min 87 W/m 3,2 km/h (1 Bft) 95,74 %
08.11.2018 13:50 14,2 C 13,9 C 11,1 C 75 % 1019,4 hPa 0,0 l/m 0 min 0 min 80 W/m 0,0 km/h (0 Bft) 98,08 %
08.11.2018 13:52 14,2 C 13,3 C 11,1 C 75 % 1019,4 hPa 0,0 l/m 0 min 0 min 72 W/m 3,2 km/h (1 Bft) 97,56 %
08.11.2018 13:54 14,1 C 13,3 C 11,1 C 74 % 1019,4 hPa 0,0 l/m 0 min 0 min 64 W/m 0,0 km/h (0 Bft) 97,87 %
08.11.2018 13:56 14,0 C 13,3 C 10,6 C 74 % 1019,3 hPa 0,0 l/m 0 min 0 min 62 W/m 0,0 km/h (0 Bft) 97,87 %
08.11.2018 13:58 13,9 C 13,9 C 10,6 C 75 % 1019,3 hPa 0,0 l/m 0 min 0 min 98 W/m 0,0 km/h (0 Bft) 95,74 %
08.11.2018 14:00 13,9 C 13,9 C 10,6 C 75 % 1019,2 hPa 0,0 l/m 0 min 0 min 84 W/m 6,4 km/h (2 Bft) 95,74 %
08.11.2018 14:02 13,8 C 14,4 C 10,6 C 75 % 1019,2 hPa 0,0 l/m 0 min 0 min 103 W/m 3,2 km/h (1 Bft) 97,87 %
08.11.2018 14:04 13,8 C 14,4 C 10,6 C 76 % 1019,2 hPa 0,0 l/m 0 min 0 min 122 W/m 0,0 km/h (0 Bft) 97,83 %
08.11.2018 14:08 13,7 C 14,4 C 10,6 C 77 % 1019,3 hPa 0,0 l/m 0 min 0 min 101 W/m 0,0 km/h (0 Bft) 97,94 %
08.11.2018 14:10 13,7 C 16,1 C 10,6 C 77 % 1019,3 hPa 0,0 l/m 0 min 0 min 121 W/m 0,0 km/h (0 Bft) 97,87 %
08.11.2018 14:12 13,6 C 15,6 C 10,6 C 77 % 1019,3 hPa 0,0 l/m 0 min 0 min 96 W/m 3,2 km/h (1 Bft) 97,87 %
08.11.2018 14:14 13,6 C 15,6 C 10,6 C 77 % 1019,3 hPa 0,0 l/m 0 min 0 min 102 W/m 0,0 km/h (0 Bft) 95,65 %
08.11.2018 14:16 13,6 C 17,8 C 10,6 C 77 % 1019,3 hPa 0,0 l/m 2 min 0 min 270 W/m 0,0 km/h (0 Bft) 97,87 %
08.11.2018 14:18 13,6 C 20,0 C 10,6 C 77 % 1019,3 hPa 0,0 l/m 2 min 0 min 328 W/m 0,0 km/h (0 Bft) 97,87 %
08.11.2018 14:20 13,6 C 20,6 C 10,6 C 77 % 1019,3 hPa 0,0 l/m 2 min 0 min 332 W/m 3,2 km/h (1 Bft) 97,87 %
08.11.2018 14:22 13,6 C 20,0 C 10,6 C 76 % 1019,2 hPa 0,0 l/m 2 min 0 min 306 W/m 3,2 km/h (1 Bft) 97,87 %
08.11.2018 14:24 13,7 C 20,6 C 10,6 C 75 % 1019,2 hPa 0,0 l/m 2 min 0 min 313 W/m 3,2 km/h (1 Bft) 97,87 %
08.11.2018 14:26 13,7 C 21,1 C 11,1 C 75 % 1019,2 hPa 0,0 l/m 2 min 0 min 327 W/m 0,0 km/h (0 Bft) 100,00 %
08.11.2018 14:28 13,8 C 22,2 C 11,1 C 75 % 1019,1 hPa 0,0 l/m 2 min 0 min 322 W/m 0,0 km/h (0 Bft) 100,00 %
08.11.2018 14:30 13,9 C 21,1 C 11,1 C 75 % 1019,0 hPa 0,0 l/m 2 min 0 min 314 W/m 3,2 km/h (1 Bft) 100,00 %
08.11.2018 14:32 14,0 C 21,1 C 11,1 C 74 % 1019,0 hPa 0,0 l/m 2 min 0 min 311 W/m 3,2 km/h (1 Bft) 97,87 %
08.11.2018 14:34 14,2 C 21,7 C 11,1 C 74 % 1019,0 hPa 0,0 l/m 2 min 0 min 307 W/m 3,2 km/h (1 Bft) 100,00 %
08.11.2018 14:38 14,2 C 21,1 C 11,1 C 71 % 1019,0 hPa 0,0 l/m 4 min 0 min 297 W/m 3,2 km/h (1 Bft) 100,00 %
08.11.2018 14:40 14,2 C 20,6 C 11,1 C 71 % 1019,0 hPa 0,0 l/m 2 min 0 min 289 W/m 6,4 km/h (2 Bft) 97,87 %
08.11.2018 14:42 14,3 C 20,6 C 11,1 C 71 % 1019,0 hPa 0,0 l/m 2 min 0 min 284 W/m 3,2 km/h (1 Bft) 100,00 %
08.11.2018 14:44 14,4 C 21,7 C 10,6 C 71 % 1019,0 hPa 0,0 l/m 2 min 0 min 280 W/m 3,2 km/h (1 Bft) 100,00 %
08.11.2018 14:46 14,4 C 20,6 C 10,6 C 70 % 1018,9 hPa 0,0 l/m 2 min 0 min 276 W/m 6,4 km/h (2 Bft) 100,00 %
08.11.2018 14:48 14,5 C 20,0 C 10,6 C 70 % 1018,9 hPa 0,0 l/m 2 min 0 min 271 W/m 6,4 km/h (2 Bft) 97,87 %
08.11.2018 14:50 14,5 C 19,4 C 10,6 C 69 % 1019,0 hPa 0,0 l/m 2 min 0 min 268 W/m 6,4 km/h (2 Bft) 100,00 %
08.11.2018 14:52 14,5 C 19,4 C 10,6 C 69 % 1018,9 hPa 0,0 l/m 2 min 0 min 264 W/m 6,4 km/h (2 Bft) 100,00 %
08.11.2018 14:54 14,5 C 19,4 C 10,6 C 69 % 1018,9 hPa 0,0 l/m 2 min 0 min 259 W/m 6,4 km/h (2 Bft) 97,87 %
08.11.2018 14:56 14,4 C 18,3 C 10,6 C 69 % 1018,9 hPa 0,0 l/m 2 min 0 min 255 W/m 6,4 km/h (2 Bft) 100,00 %
08.11.2018 14:58 14,4 C 17,2 C 10,6 C 69 % 1018,9 hPa 0,0 l/m 2 min 0 min 251 W/m 3,2 km/h (1 Bft) 100,00 %
08.11.2018 15:00 14,4 C 15,6 C 10,6 C 69 % 1018,9 hPa 0,0 l/m 2 min 0 min 247 W/m 3,2 km/h (1 Bft) 97,87 %
08.11.2018 15:02 14,3 C 14,4 C 10,6 C 69 % 1018,9 hPa 0,0 l/m 2 min 0 min 235 W/m 6,4 km/h (2 Bft) 100,00 %
08.11.2018 15:04 14,3 C 13,9 C 10,6 C 69 % 1018,8 hPa 0,0 l/m 2 min 0 min 204 W/m 3,2 km/h (1 Bft) 100,00 %
08.11.2018 15:08 14,2 C 12,8 C 10,6 C 69 % 1018,8 hPa 0,0 l/m 4 min 0 min 144 W/m 6,4 km/h (2 Bft) 97,94 %
08.11.2018 15:10 14,1 C 12,8 C 10,6 C 70 % 1018,8 hPa 0,0 l/m 0 min 0 min 88 W/m 3,2 km/h (1 Bft) 97,87 %
08.11.2018 15:12 14,0 C 12,8 C 10,6 C 70 % 1018,8 hPa 0,0 l/m 0 min 0 min 62 W/m 3,2 km/h (1 Bft) 100,00 %
08.11.2018 15:14 13,9 C 12,8 C 10,6 C 70 % 1018,7 hPa 0,0 l/m 0 min 0 min 55 W/m 6,4 km/h (2 Bft) 100,00 %
08.11.2018 15:16 13,8 C 12,8 C 10,6 C 69 % 1018,8 hPa 0,0 l/m 0 min 0 min 54 W/m 12,9 km/h (3 Bft) 95,74 %
08.11.2018 15:18 13,8 C 12,8 C 11,1 C 69 % 1018,7 hPa 0,0 l/m 0 min 0 min 53 W/m 6,4 km/h (2 Bft) 100,00 %
08.11.2018 15:20 13,8 C 12,8 C 10,6 C 70 % 1018,7 hPa 0,0 l/m 0 min 0 min 52 W/m 6,4 km/h (2 Bft) 97,83 %
08.11.2018 15:22 13,7 C 12,8 C 10,6 C 70 % 1018,7 hPa 0,0 l/m 0 min 0 min 51 W/m 9,7 km/h (2 Bft) 97,87 %
08.11.2018 15:24 13,7 C 12,8 C 10,6 C 70 % 1018,7 hPa 0,0 l/m 0 min 0 min 50 W/m 6,4 km/h (2 Bft) 100,00 %
08.11.2018 15:26 13,6 C 12,8 C 10,6 C 70 % 1018,7 hPa 0,0 l/m 0 min 0 min 49 W/m 6,4 km/h (2 Bft) 97,87 %
08.11.2018 15:28 13,6 C 12,2 C 10,6 C 70 % 1018,6 hPa 0,0 l/m 0 min 0 min 48 W/m 6,4 km/h (2 Bft) 100,00 %
08.11.2018 15:30 13,6 C 12,2 C 10,6 C 71 % 1018,6 hPa 0,0 l/m 0 min 0 min 47 W/m 3,2 km/h (1 Bft) 100,00 %
08.11.2018 15:32 13,5 C 12,2 C 10,6 C 71 % 1018,6 hPa 0,0 l/m 0 min 0 min 46 W/m 6,4 km/h (2 Bft) 100,00 %
08.11.2018 15:34 13,4 C 12,2 C 10,0 C 71 % 1018,7 hPa 0,0 l/m 0 min 0 min 46 W/m 6,4 km/h (2 Bft) 97,87 %
08.11.2018 15:38 13,4 C 12,2 C 10,0 C 72 % 1018,6 hPa 0,0 l/m 0 min 0 min 44 W/m 6,4 km/h (2 Bft) 96,81 %
08.11.2018 15:40 13,3 C 12,2 C 10,0 C 72 % 1018,6 hPa 0,0 l/m 0 min 0 min 42 W/m 6,4 km/h (2 Bft) 95,74 %
08.11.2018 15:42 13,3 C 12,2 C 10,0 C 72 % 1018,6 hPa 0,0 l/m 0 min 0 min 41 W/m 3,2 km/h (1 Bft) 93,62 %
08.11.2018 15:44 13,2 C 12,2 C 10,0 C 72 % 1018,5 hPa 0,0 l/m 0 min 0 min 40 W/m 6,4 km/h (2 Bft) 95,65 %
08.11.2018 15:46 13,2 C 12,2 C 10,0 C 71 % 1018,5 hPa 0,0 l/m 0 min 0 min 39 W/m 6,4 km/h (2 Bft) 93,62 %
08.11.2018 15:48 13,1 C 12,2 C 10,0 C 71 % 1018,5 hPa 0,0 l/m 0 min 0 min 38 W/m 3,2 km/h (1 Bft) 95,74 %
08.11.2018 15:50 13,1 C 11,7 C 10,0 C 72 % 1018,5 hPa 0,0 l/m 0 min 0 min 36 W/m 3,2 km/h (1 Bft) 95,74 %
08.11.2018 15:52 13,0 C 11,7 C 10,0 C 71 % 1018,5 hPa 0,0 l/m 0 min 0 min 35 W/m 6,4 km/h (2 Bft) 97,87 %
08.11.2018 15:54 12,9 C 11,7 C 9,4 C 71 % 1018,6 hPa 0,0 l/m 0 min 0 min 34 W/m 3,2 km/h (1 Bft) 93,62 %
08.11.2018 15:56 12,9 C 11,7 C 9,4 C 72 % 1018,6 hPa 0,0 l/m 0 min 0 min 33 W/m 3,2 km/h (1 Bft) 95,65 %
08.11.2018 15:58 12,9 C 11,7 C 9,4 C 72 % 1018,5 hPa 0,0 l/m 0 min 0 min 32 W/m 3,2 km/h (1 Bft) 95,74 %
08.11.2018 16:00 12,8 C 11,1 C 9,4 C 72 % 1018,6 hPa 0,0 l/m 0 min 0 min 32 W/m 0,0 km/h (0 Bft) 93,62 %
08.11.2018 16:02 12,8 C 11,1 C 9,4 C 72 % 1018,5 hPa 0,0 l/m 0 min 0 min 30 W/m 3,2 km/h (1 Bft) 95,74 %
08.11.2018 16:04 12,7 C 11,1 C 9,4 C 72 % 1018,5 hPa 0,0 l/m 0 min 0 min 30 W/m 3,2 km/h (1 Bft) 97,87 %
08.11.2018 16:08 12,7 C 11,1 C 9,4 C 72 % 1018,5 hPa 0,0 l/m 0 min 0 min 27 W/m 3,2 km/h (1 Bft) 97,14 %
08.11.2018 16:10 12,6 C 11,1 C 9,4 C 72 % 1018,5 hPa 0,0 l/m 0 min 0 min 26 W/m 3,2 km/h (1 Bft) 98,36 %
08.11.2018 16:12 12,6 C 10,6 C 8,9 C 73 % 1018,5 hPa 0,0 l/m 0 min 0 min 23 W/m 3,2 km/h (1 Bft) 97,87 %
08.11.2018 16:14 12,5 C 10,6 C 8,9 C 73 % 1018,5 hPa 0,0 l/m 0 min 0 min 18 W/m 3,2 km/h (1 Bft) 97,87 %
08.11.2018 16:16 12,4 C 10,6 C 8,9 C 73 % 1018,5 hPa 0,0 l/m 0 min 0 min 20 W/m 3,2 km/h (1 Bft) 97,87 %
08.11.2018 16:18 12,4 C 10,6 C 8,9 C 73 % 1018,5 hPa 0,0 l/m 0 min 0 min 20 W/m 3,2 km/h (1 Bft) 97,87 %
08.11.2018 16:20 12,3 C 10,0 C 8,9 C 73 % 1018,4 hPa 0,0 l/m 0 min 0 min 18 W/m 3,2 km/h (1 Bft) 97,87 %
08.11.2018 16:22 12,3 C 10,0 C 8,9 C 73 % 1018,5 hPa 0,0 l/m 0 min 0 min 15 W/m 3,2 km/h (1 Bft) 97,87 %
08.11.2018 16:24 12,3 C 10,0 C 8,9 C 73 % 1018,4 hPa 0,0 l/m 0 min 0 min 14 W/m 3,2 km/h (1 Bft) 97,83 %
08.11.2018 16:26 12,2 C 10,0 C 8,3 C 73 % 1018,4 hPa 0,0 l/m 0 min 0 min 14 W/m 3,2 km/h (1 Bft) 95,74 %
08.11.2018 16:28 12,2 C 10,0 C 8,3 C 73 % 1018,3 hPa 0,0 l/m 0 min 0 min 14 W/m 3,2 km/h (1 Bft) 95,74 %
08.11.2018 16:30 12,1 C 9,4 C 8,3 C 74 % 1018,4 hPa 0,0 l/m 0 min 0 min 13 W/m 3,2 km/h (1 Bft) 93,88 %
08.11.2018 16:32 12,0 C 9,4 C 8,3 C 74 % 1018,3 hPa 0,0 l/m 0 min 0 min 12 W/m 0,0 km/h (0 Bft) 95,74 %
08.11.2018 16:34 11,9 C 9,4 C 8,3 C 74 % 1018,4 hPa 0,0 l/m 0 min 0 min 11 W/m 0,0 km/h (0 Bft) 93,62 %
08.11.2018 16:38 11,8 C 8,9 C 8,3 C 74 % 1018,3 hPa 0,0 l/m 0 min 0 min 11 W/m 0,0 km/h (0 Bft) 94,62 %
08.11.2018 16:40 11,7 C 8,9 C 7,8 C 74 % 1018,3 hPa 0,0 l/m 0 min 0 min 11 W/m 0,0 km/h (0 Bft) 95,74 %
08.11.2018 16:42 11,7 C 8,9 C 7,8 C 74 % 1018,2 hPa 0,0 l/m 0 min 0 min 10 W/m 0,0 km/h (0 Bft) 97,87 %
08.11.2018 16:44 11,6 C 8,9 C 7,8 C 75 % 1018,2 hPa 0,0 l/m 0 min 0 min 9 W/m 0,0 km/h (0 Bft) 97,87 %
08.11.2018 16:46 11,5 C 8,3 C 7,8 C 75 % 1018,2 hPa 0,0 l/m 0 min 0 min 9 W/m 0,0 km/h (0 Bft) 95,74 %
08.11.2018 16:48 11,4 C 8,3 C 7,8 C 75 % 1018,2 hPa 0,0 l/m 0 min 0 min 7 W/m 0,0 km/h (0 Bft) 97,83 %
08.11.2018 16:50 11,3 C 8,3 C 7,8 C 76 % 1018,2 hPa 0,0 l/m 0 min 0 min 7 W/m 0,0 km/h (0 Bft) 95,74 %
08.11.2018 16:52 11,2 C 8,3 C 7,8 C 76 % 1018,3 hPa 0,0 l/m 0 min 0 min 5 W/m 0,0 km/h (0 Bft) 95,74 %
08.11.2018 16:54 11,1 C 8,3 C 7,8 C 76 % 1018,2 hPa 0,0 l/m 0 min 0 min 5 W/m 0,0 km/h (0 Bft) 97,87 %
08.11.2018 16:56 11,0 C 8,3 C 7,2 C 76 % 1018,2 hPa 0,0 l/m 0 min 0 min 0 W/m 0,0 km/h (0 Bft) 97,87 %
08.11.2018 16:58 10,9 C 8,3 C 7,2 C 76 % 1018,2 hPa 0,0 l/m 0 min 0 min 0 W/m 0,0 km/h (0 Bft) 97,87 %
08.11.2018 17:00 10,8 C 7,8 C 7,2 C 77 % 1018,2 hPa 0,0 l/m 0 min 0 min 0 W/m 0,0 km/h (0 Bft) 95,65 %
08.11.2018 17:02 10,8 C 7,8 C 7,2 C 77 % 1018,2 hPa 0,0 l/m 0 min 0 min 0 W/m 0,0 km/h (0 Bft) 97,87 %
08.11.2018 17:04 10,7 C 7,8 C 7,2 C 77 % 1018,1 hPa 0,0 l/m 0 min 0 min 0 W/m 0,0 km/h (0 Bft) 95,74 %
08.11.2018 17:08 10,5 C 7,8 C 7,2 C 77 % 1018,0 hPa 0,0 l/m 0 min 0 min 0 W/m 0,0 km/h (0 Bft) 95,74 %
08.11.2018 17:10 10,4 C 7,8 C 7,2 C 77 % 1018,0 hPa 0,0 l/m 0 min 0 min 0 W/m 0,0 km/h (0 Bft) 95,65 %
08.11.2018 17:12 10,3 C 7,2 C 7,2 C 77 % 1018,0 hPa 0,0 l/m 0 min 0 min 0 W/m 0,0 km/h (0 Bft) 95,74 %
08.11.2018 17:14 10,2 C 7,2 C 7,2 C 78 % 1018,0 hPa 0,0 l/m 0 min 0 min 0 W/m 0,0 km/h (0 Bft) 95,74 %
08.11.2018 17:16 10,2 C 7,2 C 6,7 C 78 % 1018,0 hPa 0,0 l/m 0 min 0 min 0 W/m 0,0 km/h (0 Bft) 97,87 %
08.11.2018 17:18 10,1 C 7,2 C 6,7 C 78 % 1018,1 hPa 0,0 l/m 0 min 0 min 0 W/m 0,0 km/h (0 Bft) 93,62 %
08.11.2018 17:20 10,0 C 7,2 C 6,7 C 78 % 1018,0 hPa 0,0 l/m 0 min 0 min 0 W/m 0,0 km/h (0 Bft) 95,74 %
08.11.2018 17:22 9,9 C 7,2 C 6,7 C 78 % 1018,0 hPa 0,0 l/m 0 min 0 min 0 W/m 0,0 km/h (0 Bft) 95,65 %
08.11.2018 17:24 9,8 C 7,2 C 6,7 C 79 % 1018,0 hPa 0,0 l/m 0 min 0 min 0 W/m 0,0 km/h (0 Bft) 93,62 %
08.11.2018 17:26 9,7 C 6,7 C 6,7 C 79 % 1018,0 hPa 0,0 l/m 0 min 0 min 0 W/m 0,0 km/h (0 Bft) 87,23 %
08.11.2018 17:28 9,7 C 6,7 C 6,7 C 79 % 1017,9 hPa 0,0 l/m 0 min 0 min 0 W/m 0,0 km/h (0 Bft) 95,74 %
08.11.2018 17:30 9,6 C 7,2 C 6,7 C 79 % 1017,9 hPa 0,0 l/m 0 min 0 min 0 W/m 0,0 km/h (0 Bft) 93,62 %
08.11.2018 17:32 9,5 C 6,7 C 6,7 C 80 % 1017,9 hPa 0,0 l/m 0 min 0 min 0 W/m 0,0 km/h (0 Bft) 95,74 %
08.11.2018 17:34 9,4 C 6,7 C 6,7 C 80 % 1017,8 hPa 0,0 l/m 0 min 0 min 0 W/m 0,0 km/h (0 Bft) 93,48 %
08.11.2018 17:38 9,3 C 6,7 C 6,7 C 80 % 1017,8 hPa 0,0 l/m 0 min 0 min 0 W/m 0,0 km/h (0 Bft) 97,87 %
08.11.2018 17:40 9,3 C 7,2 C 6,7 C 80 % 1017,8 hPa 0,0 l/m 0 min 0 min 0 W/m 3,2 km/h (1 Bft) 95,74 %
08.11.2018 17:42 9,2 C 7,2 C 6,1 C 80 % 1017,8 hPa 0,0 l/m 0 min 0 min 0 W/m 0,0 km/h (0 Bft) 100,00 %
08.11.2018 17:44 9,2 C 7,2 C 6,1 C 80 % 1017,9 hPa 0,0 l/m 0 min 0 min 0 W/m 0,0 km/h (0 Bft) 100,00 %
08.11.2018 17:46 9,2 C 7,2 C 6,1 C 80 % 1017,8 hPa 0,0 l/m 0 min 0 min 0 W/m 0,0 km/h (0 Bft) 100,00 %
08.11.2018 17:48 9,1 C 7,2 C 6,1 C 80 % 1017,8 hPa 0,0 l/m 0 min 0 min 0 W/m 0,0 km/h (0 Bft) 97,87 %
08.11.2018 17:50 9,1 C 7,2 C 6,1 C 80 % 1017,8 hPa 0,0 l/m 0 min 0 min 0 W/m 0,0 km/h (0 Bft) 100,00 %
08.11.2018 17:52 9,0 C 6,7 C 6,1 C 80 % 1017,8 hPa 0,0 l/m 0 min 0 min 0 W/m 0,0 km/h (0 Bft) 97,87 %
08.11.2018 17:54 8,9 C 6,7 C 6,1 C 80 % 1017,8 hPa 0,0 l/m 0 min 0 min 0 W/m 0,0 km/h (0 Bft) 100,00 %
08.11.2018 17:56 8,9 C 6,7 C 6,1 C 80 % 1017,8 hPa 0,0 l/m 0 min 0 min 0 W/m 0,0 km/h (0 Bft) 97,87 %
08.11.2018 17:58 8,9 C 6,7 C 6,1 C 80 % 1017,8 hPa 0,0 l/m 0 min 0 min 0 W/m 0,0 km/h (0 Bft) 97,83 %
08.11.2018 18:00 8,8 C 6,7 C 6,1 C 80 % 1017,8 hPa 0,0 l/m 0 min 0 min 0 W/m 0,0 km/h (0 Bft) 100,00 %
08.11.2018 18:02 8,7 C 6,1 C 6,1 C 81 % 1017,8 hPa 0,0 l/m 0 min 0 min 0 W/m 0,0 km/h (0 Bft) 100,00 %
08.11.2018 18:04 8,7 C 6,1 C 6,1 C 81 % 1017,8 hPa 0,0 l/m 0 min 0 min 0 W/m 0,0 km/h (0 Bft) 100,00 %
08.11.2018 18:08 8,6 C 6,1 C 5,6 C 81 % 1017,8 hPa 0,0 l/m 0 min 0 min 0 W/m 0,0 km/h (0 Bft) 100,00 %
08.11.2018 18:10 8,5 C 6,1 C 5,6 C 81 % 1017,8 hPa 0,0 l/m 0 min 0 min 0 W/m 0,0 km/h (0 Bft) 100,00 %
08.11.2018 18:12 8,4 C 6,1 C 5,6 C 81 % 1017,8 hPa 0,0 l/m 0 min 0 min 0 W/m 0,0 km/h (0 Bft) 100,00 %
08.11.2018 18:14 8,4 C 5,6 C 5,6 C 81 % 1017,8 hPa 0,0 l/m 0 min 0 min 0 W/m 0,0 km/h (0 Bft) 95,74 %
08.11.2018 18:16 8,3 C 5,6 C 5,6 C 82 % 1017,8 hPa 0,0 l/m 0 min 0 min 0 W/m 0,0 km/h (0 Bft) 100,00 %
08.11.2018 18:18 8,3 C 5,6 C 5,6 C 82 % 1017,8 hPa 0,0 l/m 0 min 0 min 0 W/m 0,0 km/h (0 Bft) 100,00 %
08.11.2018 18:20 8,2 C 5,6 C 5,6 C 82 % 1017,8 hPa 0,0 l/m 0 min 0 min 0 W/m 0,0 km/h (0 Bft) 100,00 %
08.11.2018 18:22 8,2 C 5,6 C 5,6 C 82 % 1017,7 hPa 0,0 l/m 0 min 0 min 0 W/m 0,0 km/h (0 Bft) 97,87 %
08.11.2018 18:24 8,1 C 5,6 C 5,6 C 82 % 1017,8 hPa 0,0 l/m 0 min 0 min 0 W/m 0,0 km/h (0 Bft) 100,00 %
08.11.2018 18:26 8,1 C 5,6 C 5,6 C 82 % 1017,8 hPa 0,0 l/m 0 min 0 min 0 W/m 0,0 km/h (0 Bft) 100,00 %
08.11.2018 18:28 8,0 C 5,6 C 5,6 C 83 % 1017,9 hPa 0,0 l/m 0 min 0 min 0 W/m 0,0 km/h (0 Bft) 100,00 %
08.11.2018 18:30 7,9 C 5,6 C 5,0 C 83 % 1017,8 hPa 0,0 l/m 0 min 0 min 0 W/m 0,0 km/h (0 Bft) 100,00 %
08.11.2018 18:32 7,9 C 5,6 C 5,6 C 83 % 1017,8 hPa 0,0 l/m 0 min 0 min 0 W/m 0,0 km/h (0 Bft) 97,83 %
08.11.2018 18:34 7,8 C 5,6 C 5,6 C 83 % 1017,8 hPa 0,0 l/m 0 min 0 min 0 W/m 0,0 km/h (0 Bft) 100,00 %
08.11.2018 18:38 7,7 C 5,6 C 5,6 C 83 % 1017,8 hPa 0,0 l/m 0 min 0 min 0 W/m 0,0 km/h (0 Bft) 100,00 %
08.11.2018 18:40 7,7 C 5,6 C 5,0 C 83 % 1017,7 hPa 0,0 l/m 0 min 0 min 0 W/m 0,0 km/h (0 Bft) 97,87 %
08.11.2018 18:42 7,6 C 5,6 C 5,0 C 83 % 1017,8 hPa 0,0 l/m 0 min 0 min 0 W/m 3,2 km/h (1 Bft) 100,00 %
08.11.2018 18:44 7,6 C 5,6 C 5,0 C 83 % 1017,7 hPa 0,0 l/m 0 min 0 min 0 W/m 0,0 km/h (0 Bft) 100,00 %
08.11.2018 18:46 7,6 C 5,6 C 5,0 C 83 % 1017,7 hPa 0,0 l/m 0 min 0 min 0 W/m 0,0 km/h (0 Bft) 97,87 %
08.11.2018 18:48 7,5 C 5,6 C 5,0 C 83 % 1017,7 hPa 0,0 l/m 0 min 0 min 0 W/m 0,0 km/h (0 Bft) 95,74 %
08.11.2018 18:50 7,4 C 5,6 C 5,0 C 83 % 1017,7 hPa 0,0 l/m 0 min 0 min 0 W/m 3,2 km/h (1 Bft) 97,87 %
08.11.2018 18:52 7,4 C 5,6 C 5,0 C 83 % 1017,7 hPa 0,0 l/m 0 min 0 min 0 W/m 0,0 km/h (0 Bft) 97,87 %
08.11.2018 18:54 7,4 C 5,6 C 5,0 C 83 % 1017,7 hPa 0,0 l/m 0 min 0 min 0 W/m 0,0 km/h (0 Bft) 97,87 %
08.11.2018 18:56 7,3 C 5,6 C 5,0 C 83 % 1017,7 hPa 0,0 l/m 0 min 0 min 0 W/m 3,2 km/h (1 Bft) 97,83 %
08.11.2018 18:58 7,3 C 5,6 C 5,0 C 83 % 1017,6 hPa 0,0 l/m 0 min 0 min 0 W/m 0,0 km/h (0 Bft) 97,87 %
08.11.2018 19:00 7,3 C 5,6 C 5,0 C 84 % 1017,6 hPa 0,0 l/m 0 min 0 min 0 W/m 0,0 km/h (0 Bft) 97,87 %
08.11.2018 19:02 7,2 C 5,6 C 5,0 C 84 % 1017,6 hPa 0,0 l/m 0 min 0 min 0 W/m 0,0 km/h (0 Bft) 97,87 %
08.11.2018 19:04 7,2 C 5,6 C 5,0 C 84 % 1017,6 hPa 0,0 l/m 0 min 0 min 0 W/m 0,0 km/h (0 Bft) 95,74 %
08.11.2018 19:08 7,2 C 5,6 C 5,0 C 84 % 1017,6 hPa 0,0 l/m 0 min 0 min 0 W/m 3,2 km/h (1 Bft) 97,85 %
08.11.2018 19:10 7,1 C 5,6 C 5,0 C 84 % 1017,6 hPa 0,0 l/m 0 min 0 min 0 W/m 3,2 km/h (1 Bft) 97,87 %
08.11.2018 19:12 7,1 C 5,6 C 5,0 C 84 % 1017,6 hPa 0,0 l/m 0 min 0 min 0 W/m 0,0 km/h (0 Bft) 97,87 %
08.11.2018 19:14 7,1 C 5,6 C 5,0 C 85 % 1017,6 hPa 0,0 l/m 0 min 0 min 0 W/m 0,0 km/h (0 Bft) 97,87 %
08.11.2018 19:16 7,1 C 5,6 C 5,0 C 85 % 1017,6 hPa 0,0 l/m 0 min 0 min 0 W/m 0,0 km/h (0 Bft) 97,87 %
08.11.2018 19:18 7,0 C 5,6 C 5,0 C 85 % 1017,6 hPa 0,0 l/m 0 min 0 min 0 W/m 0,0 km/h (0 Bft) 95,74 %
08.11.2018 19:20 7,0 C 5,6 C 5,0 C 85 % 1017,6 hPa 0,0 l/m 0 min 0 min 0 W/m 3,2 km/h (1 Bft) 95,65 %
08.11.2018 19:22 7,0 C 5,0 C 5,0 C 85 % 1017,5 hPa 0,0 l/m 0 min 0 min 0 W/m 3,2 km/h (1 Bft) 95,74 %
08.11.2018 19:24 6,9 C 5,0 C 5,0 C 85 % 1017,5 hPa 0,0 l/m 0 min 0 min 0 W/m 3,2 km/h (1 Bft) 100,00 %
08.11.2018 19:26 6,9 C 5,6 C 5,0 C 85 % 1017,4 hPa 0,0 l/m 0 min 0 min 0 W/m 3,2 km/h (1 Bft) 97,87 %
08.11.2018 19:28 6,9 C 5,6 C 5,0 C 85 % 1017,5 hPa 0,0 l/m 0 min 0 min 0 W/m 3,2 km/h (1 Bft) 100,00 %
08.11.2018 19:30 6,9 C 6,1 C 5,0 C 86 % 1017,5 hPa 0,0 l/m 0 min 0 min 0 W/m 6,4 km/h (2 Bft) 100,00 %
08.11.2018 19:32 6,9 C 6,1 C 5,0 C 86 % 1017,6 hPa 0,0 l/m 0 min 0 min 0 W/m 3,2 km/h (1 Bft) 100,00 %
08.11.2018 19:34 6,8 C 6,1 C 5,0 C 86 % 1017,5 hPa 0,0 l/m 0 min 0 min 0 W/m 3,2 km/h (1 Bft) 95,74 %
08.11.2018 19:38 6,8 C 6,1 C 5,0 C 86 % 1017,5 hPa 0,0 l/m 0 min 0 min 0 W/m 3,2 km/h (1 Bft) 97,87 %
08.11.2018 19:40 6,8 C 6,1 C 5,6 C 86 % 1017,5 hPa 0,0 l/m 0 min 0 min 0 W/m 3,2 km/h (1 Bft) 100,00 %
08.11.2018 19:42 6,8 C 6,1 C 5,6 C 87 % 1017,5 hPa 0,0 l/m 0 min 0 min 0 W/m 6,4 km/h (2 Bft) 100,00 %
08.11.2018 19:44 6,8 C 6,1 C 5,6 C 87 % 1017,5 hPa 0,0 l/m 0 min 0 min 0 W/m 3,2 km/h (1 Bft) 100,00 %
08.11.2018 19:46 6,8 C 6,1 C 5,6 C 87 % 1017,5 hPa 0,0 l/m 0 min 0 min 0 W/m 0,0 km/h (0 Bft) 100,00 %
08.11.2018 19:48 6,8 C 6,1 C 5,6 C 87 % 1017,5 hPa 0,0 l/m 0 min 0 min 0 W/m 0,0 km/h (0 Bft) 100,00 %
08.11.2018 19:50 6,8 C 6,1 C 5,0 C 87 % 1017,5 hPa 0,0 l/m 0 min 0 min 0 W/m 0,0 km/h (0 Bft) 100,00 %
08.11.2018 19:52 6,8 C 6,1 C 5,0 C 87 % 1017,6 hPa 0,0 l/m 0 min 0 min 0 W/m 0,0 km/h (0 Bft) 100,00 %
08.11.2018 19:54 6,8 C 6,1 C 5,0 C 87 % 1017,6 hPa 0,0 l/m 0 min 0 min 0 W/m 0,0 km/h (0 Bft) 100,00 %
08.11.2018 19:56 6,8 C 5,6 C 5,0 C 87 % 1017,6 hPa 0,0 l/m 0 min 0 min 0 W/m 0,0 km/h (0 Bft) 100,00 %
08.11.2018 19:58 6,8 C 5,6 C 5,0 C 87 % 1017,6 hPa 0,0 l/m 0 min 0 min 0 W/m 0,0 km/h (0 Bft) 100,00 %
08.11.2018 20:00 6,8 C 5,6 C 5,0 C 87 % 1017,6 hPa 0,0 l/m 0 min 0 min 0 W/m 0,0 km/h (0 Bft) 100,00 %
08.11.2018 20:02 6,8 C 5,6 C 5,0 C 87 % 1017,5 hPa 0,0 l/m 0 min 0 min 0 W/m 0,0 km/h (0 Bft) 100,00 %
08.11.2018 20:04 6,8 C 5,6 C 5,0 C 87 % 1017,6 hPa 0,0 l/m 0 min 0 min 0 W/m 0,0 km/h (0 Bft) 100,00 %
08.11.2018 20:08 6,7 C 5,6 C 5,0 C 87 % 1017,5 hPa 0,0 l/m 0 min 0 min 0 W/m 0,0 km/h (0 Bft) 100,00 %
08.11.2018 20:10 6,7 C 5,6 C 5,0 C 87 % 1017,5 hPa 0,0 l/m 0 min 0 min 0 W/m 0,0 km/h (0 Bft) 100,00 %
08.11.2018 20:12 6,7 C 5,6 C 5,0 C 87 % 1017,5 hPa 0,0 l/m 0 min 0 min 0 W/m 0,0 km/h (0 Bft) 100,00 %
08.11.2018 20:14 6,7 C 5,6 C 5,0 C 87 % 1017,5 hPa 0,0 l/m 0 min 0 min 0 W/m 0,0 km/h (0 Bft) 100,00 %
08.11.2018 20:16 6,7 C 5,6 C 5,0 C 87 % 1017,5 hPa 0,0 l/m 0 min 0 min 0 W/m 0,0 km/h (0 Bft) 100,00 %
08.11.2018 20:18 6,7 C 5,6 C 5,0 C 87 % 1017,4 hPa 0,0 l/m 0 min 0 min 0 W/m 0,0 km/h (0 Bft) 95,74 %
08.11.2018 20:20 6,7 C 5,6 C 5,0 C 87 % 1017,4 hPa 0,0 l/m 0 min 0 min 0 W/m 0,0 km/h (0 Bft) 96,61 %
08.11.2018 20:22 6,7 C 5,6 C 5,0 C 88 % 1017,4 hPa 0,0 l/m 0 min 0 min 0 W/m 0,0 km/h (0 Bft) 97,14 %
08.11.2018 20:24 6,6 C 5,6 C 5,0 C 88 % 1017,4 hPa 0,0 l/m 0 min 0 min 0 W/m 0,0 km/h (0 Bft) 95,74 %
08.11.2018 20:26 6,6 C 5,6 C 5,0 C 88 % 1017,5 hPa 0,0 l/m 0 min 0 min 0 W/m 0,0 km/h (0 Bft) 93,62 %
08.11.2018 20:28 6,6 C 5,6 C 5,0 C 88 % 1017,4 hPa 0,0 l/m 0 min 0 min 0 W/m 0,0 km/h (0 Bft) 93,48 %
08.11.2018 20:30 6,6 C 5,6 C 5,0 C 88 % 1017,4 hPa 0,0 l/m 0 min 0 min 0 W/m 0,0 km/h (0 Bft) 93,62 %
08.11.2018 20:32 6,6 C 5,6 C 5,0 C 88 % 1017,3 hPa 0,0 l/m 0 min 0 min 0 W/m 0,0 km/h (0 Bft) 95,74 %
08.11.2018 20:34 6,6 C 5,6 C 5,0 C 88 % 1017,3 hPa 0,0 l/m 0 min 0 min 0 W/m 0,0 km/h (0 Bft) 93,62 %
08.11.2018 20:36 6,6 C 5,6 C 5,0 C 88 % 1017,2 hPa 0,0 l/m 0 min 0 min 0 W/m 0,0 km/h (0 Bft) 93,62 %
08.11.2018 20:38 6,6 C 5,6 C 5,0 C 88 % 1017,2 hPa 0,0 l/m 0 min 0 min 0 W/m 0,0 km/h (0 Bft) 93,48 %
08.11.2018 20:40 6,6 C 5,6 C 5,0 C 88 % 1017,2 hPa 0,0 l/m 0 min 0 min 0 W/m 0,0 km/h (0 Bft) 93,62 %
08.11.2018 20:48 6,5 C 5,6 C 5,0 C 88 % 1017,2 hPa 0,0 l/m 0 min 0 min 0 W/m 0,0 km/h (0 Bft) 92,31 %
08.11.2018 20:50 6,5 C 5,6 C 5,0 C 88 % 1017,0 hPa 0,0 l/m 0 min 0 min 0 W/m 0,0 km/h (0 Bft) 93,62 %
08.11.2018 20:56 6,5 C 5,6 C 5,0 C 88 % 1016,9 hPa 0,0 l/m 0 min 0 min 0 W/m 0,0 km/h (0 Bft) 88,46 %
08.11.2018 20:58 6,4 C 5,6 C 5,0 C 88 % 1016,8 hPa 0,0 l/m 0 min 0 min 0 W/m 0,0 km/h (0 Bft) 91,67 %
08.11.2018 21:00 6,4 C 5,6 C 5,0 C 88 % 1016,8 hPa 0,0 l/m 0 min 0 min 0 W/m 0,0 km/h (0 Bft) 93,62 %
08.11.2018 21:02 6,4 C 5,6 C 5,0 C 88 % 1016,8 hPa 0,0 l/m 0 min 0 min 0 W/m 0,0 km/h (0 Bft) 91,49 %
08.11.2018 21:04 6,4 C 5,6 C 5,0 C 88 % 1016,8 hPa 0,0 l/m 0 min 0 min 0 W/m 0,0 km/h (0 Bft) 91,49 %
08.11.2018 21:08 6,4 C 5,6 C 5,0 C 88 % 1016,7 hPa 0,0 l/m 0 min 0 min 0 W/m 0,0 km/h (0 Bft) 93,55 %
08.11.2018 21:10 6,4 C 5,6 C 5,0 C 88 % 1016,8 hPa 0,0 l/m 0 min 0 min 0 W/m 0,0 km/h (0 Bft) 95,74 %
08.11.2018 21:12 6,4 C 5,6 C 5,0 C 88 % 1016,7 hPa 0,0 l/m 0 min 0 min 0 W/m 0,0 km/h (0 Bft) 97,87 %
08.11.2018 21:14 6,4 C 5,6 C 5,0 C 88 % 1016,7 hPa 0,0 l/m 0 min 0 min 0 W/m 0,0 km/h (0 Bft) 95,74 %
08.11.2018 21:16 6,4 C 5,6 C 5,0 C 88 % 1016,6 hPa 0,0 l/m 0 min 0 min 0 W/m 0,0 km/h (0 Bft) 97,87 %
08.11.2018 21:18 6,4 C 5,6 C 5,0 C 88 % 1016,6 hPa 0,0 l/m 0 min 0 min 0 W/m 0,0 km/h (0 Bft) 97,87 %
08.11.2018 21:20 6,4 C 5,6 C 5,0 C 88 % 1016,6 hPa 0,0 l/m 0 min 0 min 0 W/m 0,0 km/h (0 Bft) 97,83 %
08.11.2018 21:24 6,4 C 5,6 C 5,0 C 88 % 1016,6 hPa 0,0 l/m 0 min 0 min 0 W/m 0,0 km/h (0 Bft) 96,81 %
08.11.2018 21:26 6,4 C 5,6 C 5,0 C 88 % 1016,7 hPa 0,0 l/m 0 min 0 min 0 W/m 0,0 km/h (0 Bft) 97,87 %
08.11.2018 21:28 6,4 C 5,6 C 5,0 C 88 % 1016,7 hPa 0,0 l/m 0 min 0 min 0 W/m 0,0 km/h (0 Bft) 97,87 %
08.11.2018 21:30 6,4 C 5,6 C 5,0 C 89 % 1016,6 hPa 0,0 l/m 0 min 0 min 0 W/m 0,0 km/h (0 Bft) 96,08 %
08.11.2018 21:32 6,3 C 5,0 C 5,0 C 89 % 1016,6 hPa 0,0 l/m 0 min 0 min 0 W/m 0,0 km/h (0 Bft) 97,83 %
08.11.2018 21:34 6,3 C 5,0 C 4,4 C 89 % 1016,7 hPa 0,0 l/m 0 min 0 min 0 W/m 0,0 km/h (0 Bft) 97,87 %
08.11.2018 21:36 6,3 C 5,0 C 4,4 C 88 % 1016,7 hPa 0,0 l/m 0 min 0 min 0 W/m 0,0 km/h (0 Bft) 97,87 %
08.11.2018 21:38 6,3 C 5,0 C 4,4 C 88 % 1016,8 hPa 0,0 l/m 0 min 0 min 0 W/m 0,0 km/h (0 Bft) 100,00 %
08.11.2018 21:40 6,3 C 5,0 C 4,4 C 88 % 1016,7 hPa 0,0 l/m 0 min 0 min 0 W/m 0,0 km/h (0 Bft) 100,00 %
08.11.2018 21:42 6,3 C 5,0 C 4,4 C 88 % 1016,7 hPa 0,0 l/m 0 min 0 min 0 W/m 0,0 km/h (0 Bft) 97,83 %
08.11.2018 21:44 6,3 C 5,0 C 4,4 C 88 % 1016,7 hPa 0,0 l/m 0 min 0 min 0 W/m 0,0 km/h (0 Bft) 100,00 %
08.11.2018 21:46 6,2 C 4,4 C 4,4 C 88 % 1016,6 hPa 0,0 l/m 0 min 0 min 0 W/m 0,0 km/h (0 Bft) 100,00 %
08.11.2018 21:48 6,2 C 4,4 C 4,4 C 88 % 1016,6 hPa 0,0 l/m 0 min 0 min 0 W/m 0,0 km/h (0 Bft) 100,00 %
08.11.2018 21:50 6,2 C 4,4 C 4,4 C 88 % 1016,6 hPa 0,0 l/m 0 min 0 min 0 W/m 0,0 km/h (0 Bft) 97,87 %
08.11.2018 21:52 6,2 C 4,4 C 4,4 C 88 % 1016,6 hPa 0,0 l/m 0 min 0 min 0 W/m 0,0 km/h (0 Bft) 97,87 %
08.11.2018 21:54 6,2 C 4,4 C 4,4 C 88 % 1016,6 hPa 0,0 l/m 0 min 0 min 0 W/m 0,0 km/h (0 Bft) 97,83 %
08.11.2018 21:56 6,1 C 4,4 C 4,4 C 88 % 1016,6 hPa 0,0 l/m 0 min 0 min 0 W/m 0,0 km/h (0 Bft) 97,87 %
08.11.2018 21:58 6,1 C 4,4 C 4,4 C 88 % 1016,5 hPa 0,0 l/m 0 min 0 min 0 W/m 0,0 km/h (0 Bft) 100,00 %
08.11.2018 22:00 6,1 C 4,4 C 4,4 C 88 % 1016,4 hPa 0,0 l/m 0 min 0 min 0 W/m 0,0 km/h (0 Bft) 100,00 %
08.11.2018 22:02 6,1 C 5,0 C 4,4 C 89 % 1016,4 hPa 0,0 l/m 0 min 0 min 0 W/m 0,0 km/h (0 Bft) 95,74 %
08.11.2018 22:04 6,1 C 5,0 C 4,4 C 89 % 1016,4 hPa 0,0 l/m 0 min 0 min 0 W/m 0,0 km/h (0 Bft) 97,87 %
08.11.2018 22:06 6,1 C 5,0 C 4,4 C 89 % 1016,4 hPa 0,0 l/m 0 min 0 min 0 W/m 0,0 km/h (0 Bft) 100,00 %
08.11.2018 22:08 6,1 C 5,0 C 4,4 C 89 % 1016,4 hPa 0,0 l/m 0 min 0 min 0 W/m 0,0 km/h (0 Bft) 100,00 %
08.11.2018 22:10 6,0 C 5,0 C 4,4 C 89 % 1016,4 hPa 0,0 l/m 0 min 0 min 0 W/m 0,0 km/h (0 Bft) 100,00 %
08.11.2018 22:12 6,0 C 5,0 C 4,4 C 89 % 1016,3 hPa 0,0 l/m 0 min 0 min 0 W/m 0,0 km/h (0 Bft) 97,87 %
08.11.2018 22:14 6,0 C 5,0 C 4,4 C 89 % 1016,4 hPa 0,0 l/m 0 min 0 min 0 W/m 0,0 km/h (0 Bft) 100,00 %
08.11.2018 22:16 6,0 C 5,0 C 4,4 C 89 % 1016,4 hPa 0,0 l/m 0 min 0 min 0 W/m 0,0 km/h (0 Bft) 100,00 %
08.11.2018 22:18 5,9 C 5,0 C 4,4 C 89 % 1016,4 hPa 0,0 l/m 0 min 0 min 0 W/m 0,0 km/h (0 Bft) 100,00 %
08.11.2018 22:20 5,9 C 5,0 C 4,4 C 89 % 1016,4 hPa 0,0 l/m 0 min 0 min 0 W/m 0,0 km/h (0 Bft) 100,00 %
08.11.2018 22:22 5,9 C 5,0 C 4,4 C 89 % 1016,5 hPa 0,0 l/m 0 min 0 min 0 W/m 0,0 km/h (0 Bft) 100,00 %
08.11.2018 22:24 5,9 C 5,0 C 4,4 C 89 % 1016,5 hPa 0,0 l/m 0 min 0 min 0 W/m 0,0 km/h (0 Bft) 97,87 %
08.11.2018 22:26 5,9 C 5,0 C 4,4 C 90 % 1016,4 hPa 0,0 l/m 0 min 0 min 0 W/m 0,0 km/h (0 Bft) 100,00 %
08.11.2018 22:28 5,9 C 5,0 C 4,4 C 90 % 1016,3 hPa 0,0 l/m 0 min 0 min 0 W/m 0,0 km/h (0 Bft) 97,87 %
08.11.2018 22:30 5,9 C 5,0 C 4,4 C 90 % 1016,3 hPa 0,0 l/m 0 min 0 min 0 W/m 0,0 km/h (0 Bft) 100,00 %
08.11.2018 22:32 5,9 C 5,0 C 4,4 C 90 % 1016,3 hPa 0,0 l/m 0 min 0 min 0 W/m 0,0 km/h (0 Bft) 100,00 %
08.11.2018 22:34 5,9 C 5,0 C 4,4 C 90 % 1016,2 hPa 0,0 l/m 0 min 0 min 0 W/m 0,0 km/h (0 Bft) 97,87 %
08.11.2018 22:36 5,9 C 5,0 C 4,4 C 90 % 1016,2 hPa 0,0 l/m 0 min 0 min 0 W/m 0,0 km/h (0 Bft) 95,74 %
08.11.2018 22:38 5,9 C 5,0 C 4,4 C 90 % 1016,3 hPa 0,0 l/m 0 min 0 min 0 W/m 0,0 km/h (0 Bft) 97,87 %
08.11.2018 22:40 5,9 C 5,0 C 4,4 C 90 % 1016,2 hPa 0,0 l/m 0 min 0 min 0 W/m 0,0 km/h (0 Bft) 100,00 %
08.11.2018 22:42 5,9 C 5,0 C 4,4 C 90 % 1016,2 hPa 0,0 l/m 0 min 0 min 0 W/m 0,0 km/h (0 Bft) 100,00 %
08.11.2018 22:44 5,9 C 5,0 C 4,4 C 90 % 1016,2 hPa 0,0 l/m 0 min 0 min 0 W/m 0,0 km/h (0 Bft) 95,74 %
08.11.2018 22:46 5,9 C 5,0 C 4,4 C 90 % 1016,1 hPa 0,0 l/m 0 min 0 min 0 W/m 0,0 km/h (0 Bft) 97,87 %
08.11.2018 22:48 5,9 C 5,0 C 4,4 C 90 % 1016,1 hPa 0,0 l/m 0 min 0 min 0 W/m 0,0 km/h (0 Bft) 97,87 %
08.11.2018 22:50 5,9 C 5,0 C 4,4 C 90 % 1016,1 hPa 0,0 l/m 0 min 0 min 0 W/m 0,0 km/h (0 Bft) 97,87 %
08.11.2018 22:52 5,9 C 5,0 C 4,4 C 91 % 1016,1 hPa 0,0 l/m 0 min 0 min 0 W/m 0,0 km/h (0 Bft) 97,83 %
08.11.2018 22:54 5,9 C 5,0 C 4,4 C 91 % 1016,0 hPa 0,0 l/m 0 min 0 min 0 W/m 0,0 km/h (0 Bft) 97,87 %
08.11.2018 22:56 5,9 C 5,0 C 4,4 C 91 % 1015,9 hPa 0,0 l/m 0 min 0 min 0 W/m 0,0 km/h (0 Bft) 97,87 %
08.11.2018 22:58 5,9 C 5,0 C 4,4 C 91 % 1015,9 hPa 0,0 l/m 0 min 0 min 0 W/m 0,0 km/h (0 Bft) 95,74 %
08.11.2018 23:00 5,9 C 5,0 C 4,4 C 91 % 1015,9 hPa 0,0 l/m 0 min 0 min 0 W/m 0,0 km/h (0 Bft) 93,62 %
08.11.2018 23:02 5,9 C 5,0 C 4,4 C 91 % 1015,9 hPa 0,0 l/m 0 min 0 min 0 W/m 0,0 km/h (0 Bft) 97,87 %
08.11.2018 23:04 5,9 C 5,0 C 4,4 C 91 % 1015,9 hPa 0,0 l/m 0 min 0 min 0 W/m 0,0 km/h (0 Bft) 97,83 %
08.11.2018 23:06 5,9 C 5,0 C 4,4 C 91 % 1015,8 hPa 0,0 l/m 0 min 0 min 0 W/m 0,0 km/h (0 Bft) 97,87 %
08.11.2018 23:08 5,9 C 5,0 C 4,4 C 91 % 1015,7 hPa 0,0 l/m 0 min 0 min 0 W/m 0,0 km/h (0 Bft) 97,87 %
08.11.2018 23:10 5,9 C 5,0 C 4,4 C 91 % 1015,8 hPa 0,0 l/m 0 min 0 min 0 W/m 0,0 km/h (0 Bft) 97,87 %
08.11.2018 23:12 5,9 C 5,0 C 4,4 C 91 % 1015,8 hPa 0,0 l/m 0 min 0 min 0 W/m 0,0 km/h (0 Bft) 95,74 %
08.11.2018 23:14 5,9 C 5,0 C 4,4 C 91 % 1015,8 hPa 0,0 l/m 0 min 0 min 0 W/m 0,0 km/h (0 Bft) 93,62 %
08.11.2018 23:16 5,9 C 5,0 C 4,4 C 91 % 1015,8 hPa 0,0 l/m 0 min 0 min 0 W/m 0,0 km/h (0 Bft) 97,83 %
08.11.2018 23:18 5,9 C 5,0 C 4,4 C 91 % 1015,7 hPa 0,0 l/m 0 min 0 min 0 W/m 0,0 km/h (0 Bft) 97,87 %
08.11.2018 23:20 5,9 C 5,0 C 4,4 C 91 % 1015,8 hPa 0,0 l/m 0 min 0 min 0 W/m 0,0 km/h (0 Bft) 97,87 %
08.11.2018 23:22 5,9 C 5,0 C 4,4 C 91 % 1015,7 hPa 0,0 l/m 0 min 0 min 0 W/m 0,0 km/h (0 Bft) 97,87 %
08.11.2018 23:24 5,9 C 5,0 C 4,4 C 91 % 1015,8 hPa 0,0 l/m 0 min 0 min 0 W/m 0,0 km/h (0 Bft) 97,87 %
08.11.2018 23:26 5,9 C 5,0 C 4,4 C 91 % 1015,7 hPa 0,0 l/m 0 min 0 min 0 W/m 0,0 km/h (0 Bft) 97,87 %
08.11.2018 23:28 5,9 C 5,0 C 4,4 C 91 % 1015,6 hPa 0,0 l/m 0 min 0 min 0 W/m 0,0 km/h (0 Bft) 97,83 %
08.11.2018 23:30 5,8 C 5,0 C 4,4 C 91 % 1015,6 hPa 0,0 l/m 0 min 0 min 0 W/m 0,0 km/h (0 Bft) 95,74 %
08.11.2018 23:32 5,8 C 5,0 C 4,4 C 92 % 1015,6 hPa 0,0 l/m 0 min 0 min 0 W/m 0,0 km/h (0 Bft) 93,62 %
08.11.2018 23:34 5,8 C 5,0 C 4,4 C 92 % 1015,6 hPa 0,0 l/m 0 min 0 min 0 W/m 0,0 km/h (0 Bft) 97,87 %
08.11.2018 23:36 5,8 C 5,0 C 4,4 C 92 % 1015,6 hPa 0,0 l/m 0 min 0 min 0 W/m 0,0 km/h (0 Bft) 97,87 %
08.11.2018 23:38 5,9 C 5,0 C 4,4 C 92 % 1015,6 hPa 0,0 l/m 0 min 0 min 0 W/m 0,0 km/h (0 Bft) 95,74 %
08.11.2018 23:40 5,9 C 5,0 C 4,4 C 92 % 1015,5 hPa 0,0 l/m 0 min 0 min 0 W/m 0,0 km/h (0 Bft) 97,83 %
08.11.2018 23:42 5,9 C 5,0 C 4,4 C 92 % 1015,6 hPa 0,0 l/m 0 min 0 min 0 W/m 0,0 km/h (0 Bft) 95,74 %
08.11.2018 23:44 5,9 C 5,0 C 5,0 C 92 % 1015,5 hPa 0,0 l/m 0 min 0 min 0 W/m 0,0 km/h (0 Bft) 97,87 %
08.11.2018 23:46 5,9 C 5,0 C 5,0 C 92 % 1015,5 hPa 0,0 l/m 0 min 0 min 0 W/m 0,0 km/h (0 Bft) 95,74 %
08.11.2018 23:48 5,9 C 5,0 C 5,0 C 92 % 1015,4 hPa 0,0 l/m 0 min 0 min 0 W/m 0,0 km/h (0 Bft) 97,87 %
08.11.2018 23:50 5,9 C 5,0 C 5,0 C 92 % 1015,4 hPa 0,0 l/m 0 min 0 min 0 W/m 0,0 km/h (0 Bft) 97,87 %
08.11.2018 23:52 5,9 C 5,6 C 5,0 C 92 % 1015,4 hPa 0,0 l/m 0 min 0 min 0 W/m 0,0 km/h (0 Bft) 95,74 %
08.11.2018 23:54 5,9 C 5,6 C 5,0 C 92 % 1015,4 hPa 0,0 l/m 0 min 0 min 0 W/m 0,0 km/h (0 Bft) 97,83 %
08.11.2018 23:56 5,9 C 5,6 C 5,0 C 92 % 1015,4 hPa 0,0 l/m 0 min 0 min 0 W/m 0,0 km/h (0 Bft) 97,87 %
08.11.2018 23:58 5,9 C 5,6 C 5,0 C 92 % 1015,3 hPa 0,0 l/m 0 min 0 min 0 W/m 0,0 km/h (0 Bft) 97,87 %
_ Min-Zeit 23:30 21:46 21:34 12:50 00:00 - - - - 00:04 17:26
Minimum _ 5,8 C 4,4 C 4,4 C 68 % 1011,2 hPa - - - - 0,0 km/h (0 Bft) 87,23 %
_ Max-Zeit 12:56 12:26 12:16 23:32 12:18 00:00 09:08 00:00 12:32 06:20 00:58
Maximum _ 15,9 C 24,4 C 16,7 C 92 % 1020,0 hPa 0,0 l/m 4 min 0 min 453 W/m 22,5 km/h
O (4 Bft)
100,00 %
Durchschnitt _ 10,4 C 10,6 C 8,5 C 84 % 1016,9 hPa #0,0 l/m #4:44 h #0 min. 187 W/m 4,9 km/h (1 Bft) 97,37 %
© 2018 W. Hausmann